<?xml version="1.0" encoding="UTF-8"?>
<gpx version="1.0" creator="GPSBabel - https://www.gpsbabel.org" xmlns="http://www.topografix.com/GPX/1/0">
  <time>2021-12-07T03:01:00.322Z</time>
  <bounds minlat="35.498467000" minlon="-106.842612150" maxlat="35.507312000" maxlon="-106.834584000"/>
  <wpt lat="35.507209000" lon="-106.834617000">
    <ele>0.000</ele>
    <name>Turn Around</name>
    <cmt>Turn Around</cmt>
    <desc>Turn Around</desc>
  </wpt>
  <wpt lat="35.505411000" lon="-106.835479000">
    <ele>0.000</ele>
    <name>Bike Trails 17</name>
    <cmt>Bike Trails 17</cmt>
    <desc>Bike Trails 17</desc>
  </wpt>
  <wpt lat="35.503620580" lon="-106.842612150">
    <ele>0.000</ele>
    <name>Dragons Back</name>
    <cmt>Dragon's Back</cmt>
    <desc>Dragon's Back</desc>
  </wpt>
  <wpt lat="35.499250265" lon="-106.841063592">
    <ele>0.000</ele>
    <name>Bike Trails 1</name>
    <cmt>Bike Trails 1</cmt>
    <desc>Bike Trails 1</desc>
  </wpt>
  <wpt lat="35.500797103" lon="-106.840844989">
    <ele>0.000</ele>
    <name>Bike Trails 2</name>
    <cmt>Bike Trails 2</cmt>
    <desc>Bike Trails 2</desc>
  </wpt>
  <wpt lat="35.502260165" lon="-106.841265667">
    <ele>0.000</ele>
    <name>Bike Trails 3</name>
    <cmt>Bike Trails 3</cmt>
    <desc>Bike Trails 3</desc>
  </wpt>
  <wpt lat="35.506781085" lon="-106.837951456">
    <ele>0.000</ele>
    <name>Bike Trails 19</name>
    <cmt>Bike Trails 19</cmt>
    <desc>Bike Trails 19</desc>
  </wpt>
  <wpt lat="35.506784152" lon="-106.839695369">
    <ele>0.000</ele>
    <name>Bike Trails 21</name>
    <cmt>Bike Trails 21</cmt>
    <desc>Bike Trails 21</desc>
  </wpt>
  <wpt lat="35.498668193" lon="-106.838608260">
    <ele>0.000</ele>
    <name>Cabezon Road</name>
    <cmt>Cabezon Road</cmt>
    <desc>Cabezon Road</desc>
  </wpt>
  <trk>
    <name>White Mess Bike Trails.Pat.2017-03-09</name>
    <desc>&lt;table&gt;
            &lt;tr&gt;&lt;td&gt;&lt;b&gt;Distance&lt;/b&gt; 2.3 mi &lt;/td&gt;&lt;/tr&gt;
            &lt;tr&gt;&lt;td&gt;&lt;b&gt;Min Alt&lt;/b&gt; 5738.189 ft &lt;/td&gt;&lt;/tr&gt;
            &lt;tr&gt;&lt;td&gt;&lt;b&gt;Max Alt&lt;/b&gt; 5990.814 ft &lt;/td&gt;&lt;/tr&gt;
            &lt;tr&gt;&lt;td&gt;&lt;b&gt;Max Speed&lt;/b&gt; 6.0 mph &lt;/td&gt;&lt;/tr&gt;
            &lt;tr&gt;&lt;td&gt;&lt;b&gt;Start Time&lt;/b&gt; 2017-03-09T18:53:58Z  &lt;/td&gt;&lt;/tr&gt;
            &lt;tr&gt;&lt;td&gt;&lt;b&gt;End Time&lt;/b&gt; 2017-03-09T21:18:43Z  &lt;/td&gt;&lt;/tr&gt;
          &lt;/table&gt;</desc>
    <trkseg>
      <trkpt lat="35.498510000" lon="-106.841488000">
        <ele>1749.000</ele>
        <time>2017-03-09T18:53:58Z</time>
        <name>WPT</name>
      </trkpt>
      <trkpt lat="35.498536000" lon="-106.841456000">
        <ele>1752.000</ele>
        <time>2017-03-09T18:54:35Z</time>
        <name>WPT.1</name>
      </trkpt>
      <trkpt lat="35.498572000" lon="-106.841439000">
        <ele>1753.000</ele>
        <time>2017-03-09T18:54:40Z</time>
        <name>WPT.2</name>
      </trkpt>
      <trkpt lat="35.498615000" lon="-106.841435000">
        <ele>1754.000</ele>
        <time>2017-03-09T18:54:44Z</time>
        <name>WPT.3</name>
      </trkpt>
      <trkpt lat="35.498664000" lon="-106.841421000">
        <ele>1753.000</ele>
        <time>2017-03-09T18:54:49Z</time>
        <name>WPT.4</name>
      </trkpt>
      <trkpt lat="35.498698000" lon="-106.841407000">
        <ele>1754.000</ele>
        <time>2017-03-09T18:55:27Z</time>
        <name>WPT.5</name>
      </trkpt>
      <trkpt lat="35.498664000" lon="-106.841426000">
        <ele>1756.000</ele>
        <time>2017-03-09T18:57:32Z</time>
        <name>WPT.6</name>
      </trkpt>
      <trkpt lat="35.498708000" lon="-106.841436000">
        <ele>1755.000</ele>
        <time>2017-03-09T18:58:07Z</time>
        <name>WPT.7</name>
      </trkpt>
      <trkpt lat="35.498751000" lon="-106.841447000">
        <ele>1756.000</ele>
        <time>2017-03-09T18:58:11Z</time>
        <name>WPT.8</name>
      </trkpt>
      <trkpt lat="35.498790000" lon="-106.841440000">
        <ele>1757.000</ele>
        <time>2017-03-09T18:58:15Z</time>
        <name>WPT.9</name>
      </trkpt>
      <trkpt lat="35.498835000" lon="-106.841420000">
        <ele>1757.000</ele>
        <time>2017-03-09T18:58:19Z</time>
        <name>WPT.10</name>
      </trkpt>
      <trkpt lat="35.498869000" lon="-106.841391000">
        <ele>1756.000</ele>
        <time>2017-03-09T18:58:24Z</time>
        <name>WPT.11</name>
      </trkpt>
      <trkpt lat="35.498906000" lon="-106.841374000">
        <ele>1756.000</ele>
        <time>2017-03-09T18:58:28Z</time>
        <name>WPT.12</name>
      </trkpt>
      <trkpt lat="35.498937000" lon="-106.841344000">
        <ele>1755.000</ele>
        <time>2017-03-09T18:58:32Z</time>
        <name>WPT.13</name>
      </trkpt>
      <trkpt lat="35.498965000" lon="-106.841301000">
        <ele>1756.000</ele>
        <time>2017-03-09T18:58:36Z</time>
        <name>WPT.14</name>
      </trkpt>
      <trkpt lat="35.498983000" lon="-106.841262000">
        <ele>1756.000</ele>
        <time>2017-03-09T18:58:39Z</time>
        <name>WPT.15</name>
      </trkpt>
      <trkpt lat="35.499009000" lon="-106.841230000">
        <ele>1757.000</ele>
        <time>2017-03-09T18:58:42Z</time>
        <name>WPT.16</name>
      </trkpt>
      <trkpt lat="35.499045000" lon="-106.841198000">
        <ele>1757.000</ele>
        <time>2017-03-09T18:58:46Z</time>
        <name>WPT.17</name>
      </trkpt>
      <trkpt lat="35.499072000" lon="-106.841166000">
        <ele>1757.000</ele>
        <time>2017-03-09T18:58:49Z</time>
        <name>WPT.18</name>
      </trkpt>
      <trkpt lat="35.499109000" lon="-106.841138000">
        <ele>1758.000</ele>
        <time>2017-03-09T18:58:53Z</time>
        <name>WPT.19</name>
      </trkpt>
      <trkpt lat="35.499154000" lon="-106.841112000">
        <ele>1758.000</ele>
        <time>2017-03-09T18:58:57Z</time>
        <name>WPT.20</name>
      </trkpt>
      <trkpt lat="35.499185000" lon="-106.841087000">
        <ele>1758.000</ele>
        <time>2017-03-09T18:59:00Z</time>
        <name>WPT.21</name>
      </trkpt>
      <trkpt lat="35.499213000" lon="-106.841055000">
        <ele>1759.000</ele>
        <time>2017-03-09T18:59:04Z</time>
        <name>WPT.22</name>
      </trkpt>
      <trkpt lat="35.499228000" lon="-106.841012000">
        <ele>1758.000</ele>
        <time>2017-03-09T18:59:43Z</time>
        <name>WPT.23</name>
      </trkpt>
      <trkpt lat="35.499265000" lon="-106.840983000">
        <ele>1758.000</ele>
        <time>2017-03-09T18:59:46Z</time>
        <name>WPT.24</name>
      </trkpt>
      <trkpt lat="35.499304000" lon="-106.840954000">
        <ele>1758.000</ele>
        <time>2017-03-09T18:59:50Z</time>
        <name>WPT.25</name>
      </trkpt>
      <trkpt lat="35.499335000" lon="-106.840929000">
        <ele>1758.000</ele>
        <time>2017-03-09T18:59:53Z</time>
        <name>WPT.26</name>
      </trkpt>
      <trkpt lat="35.499376000" lon="-106.840901000">
        <ele>1758.000</ele>
        <time>2017-03-09T18:59:57Z</time>
        <name>WPT.27</name>
      </trkpt>
      <trkpt lat="35.499417000" lon="-106.840890000">
        <ele>1758.000</ele>
        <time>2017-03-09T19:00:01Z</time>
        <name>WPT.28</name>
      </trkpt>
      <trkpt lat="35.499464000" lon="-106.840869000">
        <ele>1759.000</ele>
        <time>2017-03-09T19:00:05Z</time>
        <name>WPT.29</name>
      </trkpt>
      <trkpt lat="35.499492000" lon="-106.840839000">
        <ele>1759.000</ele>
        <time>2017-03-09T19:00:08Z</time>
        <name>WPT.30</name>
      </trkpt>
      <trkpt lat="35.499526000" lon="-106.840821000">
        <ele>1759.000</ele>
        <time>2017-03-09T19:00:11Z</time>
        <name>WPT.31</name>
      </trkpt>
      <trkpt lat="35.499569000" lon="-106.840794000">
        <ele>1760.000</ele>
        <time>2017-03-09T19:00:15Z</time>
        <name>WPT.32</name>
      </trkpt>
      <trkpt lat="35.499610000" lon="-106.840769000">
        <ele>1760.000</ele>
        <time>2017-03-09T19:00:19Z</time>
        <name>WPT.33</name>
      </trkpt>
      <trkpt lat="35.499648000" lon="-106.840738000">
        <ele>1760.000</ele>
        <time>2017-03-09T19:00:23Z</time>
        <name>WPT.34</name>
      </trkpt>
      <trkpt lat="35.499682000" lon="-106.840718000">
        <ele>1760.000</ele>
        <time>2017-03-09T19:00:26Z</time>
        <name>WPT.35</name>
      </trkpt>
      <trkpt lat="35.499717000" lon="-106.840692000">
        <ele>1761.000</ele>
        <time>2017-03-09T19:00:29Z</time>
        <name>WPT.36</name>
      </trkpt>
      <trkpt lat="35.499751000" lon="-106.840671000">
        <ele>1761.000</ele>
        <time>2017-03-09T19:00:32Z</time>
        <name>WPT.37</name>
      </trkpt>
      <trkpt lat="35.499785000" lon="-106.840652000">
        <ele>1762.000</ele>
        <time>2017-03-09T19:00:35Z</time>
        <name>WPT.38</name>
      </trkpt>
      <trkpt lat="35.499815000" lon="-106.840627000">
        <ele>1762.000</ele>
        <time>2017-03-09T19:00:38Z</time>
        <name>WPT.39</name>
      </trkpt>
      <trkpt lat="35.499851000" lon="-106.840594000">
        <ele>1763.000</ele>
        <time>2017-03-09T19:00:42Z</time>
        <name>WPT.40</name>
      </trkpt>
      <trkpt lat="35.499891000" lon="-106.840574000">
        <ele>1763.000</ele>
        <time>2017-03-09T19:00:45Z</time>
        <name>WPT.41</name>
      </trkpt>
      <trkpt lat="35.499925000" lon="-106.840548000">
        <ele>1763.000</ele>
        <time>2017-03-09T19:00:48Z</time>
        <name>WPT.42</name>
      </trkpt>
      <trkpt lat="35.499968000" lon="-106.840524000">
        <ele>1763.000</ele>
        <time>2017-03-09T19:00:52Z</time>
        <name>WPT.43</name>
      </trkpt>
      <trkpt lat="35.500004000" lon="-106.840493000">
        <ele>1764.000</ele>
        <time>2017-03-09T19:00:56Z</time>
        <name>WPT.44</name>
      </trkpt>
      <trkpt lat="35.500031000" lon="-106.840446000">
        <ele>1764.000</ele>
        <time>2017-03-09T19:00:59Z</time>
        <name>WPT.45</name>
      </trkpt>
      <trkpt lat="35.500059000" lon="-106.840411000">
        <ele>1765.000</ele>
        <time>2017-03-09T19:01:02Z</time>
        <name>WPT.46</name>
      </trkpt>
      <trkpt lat="35.500113000" lon="-106.840372000">
        <ele>1766.000</ele>
        <time>2017-03-09T19:01:06Z</time>
        <name>WPT.47</name>
      </trkpt>
      <trkpt lat="35.500144000" lon="-106.840348000">
        <ele>1766.000</ele>
        <time>2017-03-09T19:01:09Z</time>
        <name>WPT.48</name>
      </trkpt>
      <trkpt lat="35.500167000" lon="-106.840313000">
        <ele>1765.000</ele>
        <time>2017-03-09T19:01:12Z</time>
        <name>WPT.49</name>
      </trkpt>
      <trkpt lat="35.500206000" lon="-106.840287000">
        <ele>1765.000</ele>
        <time>2017-03-09T19:01:16Z</time>
        <name>WPT.50</name>
      </trkpt>
      <trkpt lat="35.500231000" lon="-106.840248000">
        <ele>1765.000</ele>
        <time>2017-03-09T19:01:19Z</time>
        <name>WPT.51</name>
      </trkpt>
      <trkpt lat="35.500252000" lon="-106.840208000">
        <ele>1765.000</ele>
        <time>2017-03-09T19:01:23Z</time>
        <name>WPT.52</name>
      </trkpt>
      <trkpt lat="35.500270000" lon="-106.840165000">
        <ele>1765.000</ele>
        <time>2017-03-09T19:01:26Z</time>
        <name>WPT.53</name>
      </trkpt>
      <trkpt lat="35.500283000" lon="-106.840114000">
        <ele>1767.000</ele>
        <time>2017-03-09T19:01:30Z</time>
        <name>WPT.54</name>
      </trkpt>
      <trkpt lat="35.500289000" lon="-106.840069000">
        <ele>1768.000</ele>
        <time>2017-03-09T19:01:33Z</time>
        <name>WPT.55</name>
      </trkpt>
      <trkpt lat="35.500290000" lon="-106.840019000">
        <ele>1769.000</ele>
        <time>2017-03-09T19:01:36Z</time>
        <name>WPT.56</name>
      </trkpt>
      <trkpt lat="35.500281000" lon="-106.839965000">
        <ele>1770.000</ele>
        <time>2017-03-09T19:01:39Z</time>
        <name>WPT.57</name>
      </trkpt>
      <trkpt lat="35.500268000" lon="-106.839910000">
        <ele>1770.000</ele>
        <time>2017-03-09T19:01:42Z</time>
        <name>WPT.58</name>
      </trkpt>
      <trkpt lat="35.500265000" lon="-106.839860000">
        <ele>1771.000</ele>
        <time>2017-03-09T19:01:45Z</time>
        <name>WPT.59</name>
      </trkpt>
      <trkpt lat="35.500245000" lon="-106.839807000">
        <ele>1771.000</ele>
        <time>2017-03-09T19:01:49Z</time>
        <name>WPT.60</name>
      </trkpt>
      <trkpt lat="35.500216000" lon="-106.839777000">
        <ele>1770.000</ele>
        <time>2017-03-09T19:01:53Z</time>
        <name>WPT.61</name>
      </trkpt>
      <trkpt lat="35.500207000" lon="-106.839722000">
        <ele>1770.000</ele>
        <time>2017-03-09T19:02:39Z</time>
        <name>WPT.62</name>
      </trkpt>
      <trkpt lat="35.500179000" lon="-106.839685000">
        <ele>1769.000</ele>
        <time>2017-03-09T19:02:44Z</time>
        <name>WPT.63</name>
      </trkpt>
      <trkpt lat="35.500150000" lon="-106.839658000">
        <ele>1769.000</ele>
        <time>2017-03-09T19:02:47Z</time>
        <name>WPT.64</name>
      </trkpt>
      <trkpt lat="35.500133000" lon="-106.839609000">
        <ele>1770.000</ele>
        <time>2017-03-09T19:02:51Z</time>
        <name>WPT.65</name>
      </trkpt>
      <trkpt lat="35.500103000" lon="-106.839572000">
        <ele>1771.000</ele>
        <time>2017-03-09T19:02:55Z</time>
        <name>WPT.66</name>
      </trkpt>
      <trkpt lat="35.500079000" lon="-106.839534000">
        <ele>1771.000</ele>
        <time>2017-03-09T19:02:58Z</time>
        <name>WPT.67</name>
      </trkpt>
      <trkpt lat="35.500062000" lon="-106.839491000">
        <ele>1771.000</ele>
        <time>2017-03-09T19:03:01Z</time>
        <name>WPT.68</name>
      </trkpt>
      <trkpt lat="35.500050000" lon="-106.839443000">
        <ele>1771.000</ele>
        <time>2017-03-09T19:03:04Z</time>
        <name>WPT.69</name>
      </trkpt>
      <trkpt lat="35.500044000" lon="-106.839399000">
        <ele>1770.000</ele>
        <time>2017-03-09T19:03:07Z</time>
        <name>WPT.70</name>
      </trkpt>
      <trkpt lat="35.500032000" lon="-106.839350000">
        <ele>1771.000</ele>
        <time>2017-03-09T19:03:10Z</time>
        <name>WPT.71</name>
      </trkpt>
      <trkpt lat="35.500033000" lon="-106.839299000">
        <ele>1770.000</ele>
        <time>2017-03-09T19:03:13Z</time>
        <name>WPT.72</name>
      </trkpt>
      <trkpt lat="35.500019000" lon="-106.839242000">
        <ele>1771.000</ele>
        <time>2017-03-09T19:03:17Z</time>
        <name>WPT.73</name>
      </trkpt>
      <trkpt lat="35.500011000" lon="-106.839194000">
        <ele>1771.000</ele>
        <time>2017-03-09T19:03:20Z</time>
        <name>WPT.74</name>
      </trkpt>
      <trkpt lat="35.500010000" lon="-106.839139000">
        <ele>1771.000</ele>
        <time>2017-03-09T19:03:23Z</time>
        <name>WPT.75</name>
      </trkpt>
      <trkpt lat="35.500005000" lon="-106.839080000">
        <ele>1771.000</ele>
        <time>2017-03-09T19:03:27Z</time>
        <name>WPT.76</name>
      </trkpt>
      <trkpt lat="35.500005000" lon="-106.839024000">
        <ele>1772.000</ele>
        <time>2017-03-09T19:03:31Z</time>
        <name>WPT.77</name>
      </trkpt>
      <trkpt lat="35.500006000" lon="-106.838978000">
        <ele>1772.000</ele>
        <time>2017-03-09T19:03:34Z</time>
        <name>WPT.78</name>
      </trkpt>
      <trkpt lat="35.500002000" lon="-106.838925000">
        <ele>1772.000</ele>
        <time>2017-03-09T19:04:35Z</time>
        <name>WPT.79</name>
      </trkpt>
      <trkpt lat="35.500008000" lon="-106.838878000">
        <ele>1772.000</ele>
        <time>2017-03-09T19:04:38Z</time>
        <name>WPT.80</name>
      </trkpt>
      <trkpt lat="35.500015000" lon="-106.838832000">
        <ele>1772.000</ele>
        <time>2017-03-09T19:04:41Z</time>
        <name>WPT.81</name>
      </trkpt>
      <trkpt lat="35.500025000" lon="-106.838786000">
        <ele>1771.000</ele>
        <time>2017-03-09T19:04:44Z</time>
        <name>WPT.82</name>
      </trkpt>
      <trkpt lat="35.500053000" lon="-106.838741000">
        <ele>1771.000</ele>
        <time>2017-03-09T19:04:48Z</time>
        <name>WPT.83</name>
      </trkpt>
      <trkpt lat="35.500084000" lon="-106.838706000">
        <ele>1772.000</ele>
        <time>2017-03-09T19:04:52Z</time>
        <name>WPT.84</name>
      </trkpt>
      <trkpt lat="35.500122000" lon="-106.838672000">
        <ele>1772.000</ele>
        <time>2017-03-09T19:04:56Z</time>
        <name>WPT.85</name>
      </trkpt>
      <trkpt lat="35.500151000" lon="-106.838644000">
        <ele>1772.000</ele>
        <time>2017-03-09T19:04:59Z</time>
        <name>WPT.86</name>
      </trkpt>
      <trkpt lat="35.500182000" lon="-106.838616000">
        <ele>1772.000</ele>
        <time>2017-03-09T19:05:02Z</time>
        <name>WPT.87</name>
      </trkpt>
      <trkpt lat="35.500218000" lon="-106.838588000">
        <ele>1772.000</ele>
        <time>2017-03-09T19:05:06Z</time>
        <name>WPT.88</name>
      </trkpt>
      <trkpt lat="35.500252000" lon="-106.838565000">
        <ele>1772.000</ele>
        <time>2017-03-09T19:05:09Z</time>
        <name>WPT.89</name>
      </trkpt>
      <trkpt lat="35.500291000" lon="-106.838552000">
        <ele>1773.000</ele>
        <time>2017-03-09T19:05:14Z</time>
        <name>WPT.90</name>
      </trkpt>
      <trkpt lat="35.500323000" lon="-106.838522000">
        <ele>1773.000</ele>
        <time>2017-03-09T19:05:27Z</time>
        <name>WPT.91</name>
      </trkpt>
      <trkpt lat="35.500322000" lon="-106.838476000">
        <ele>1773.000</ele>
        <time>2017-03-09T19:05:31Z</time>
        <name>WPT.92</name>
      </trkpt>
      <trkpt lat="35.500316000" lon="-106.838428000">
        <ele>1773.000</ele>
        <time>2017-03-09T19:05:34Z</time>
        <name>WPT.93</name>
      </trkpt>
      <trkpt lat="35.500329000" lon="-106.838383000">
        <ele>1773.000</ele>
        <time>2017-03-09T19:05:38Z</time>
        <name>WPT.94</name>
      </trkpt>
      <trkpt lat="35.500365000" lon="-106.838347000">
        <ele>1775.000</ele>
        <time>2017-03-09T19:05:42Z</time>
        <name>WPT.95</name>
      </trkpt>
      <trkpt lat="35.500391000" lon="-106.838314000">
        <ele>1775.000</ele>
        <time>2017-03-09T19:05:45Z</time>
        <name>WPT.96</name>
      </trkpt>
      <trkpt lat="35.500403000" lon="-106.838358000">
        <ele>1775.000</ele>
        <time>2017-03-09T19:07:07Z</time>
        <name>WPT.97</name>
      </trkpt>
      <trkpt lat="35.500391000" lon="-106.838408000">
        <ele>1774.000</ele>
        <time>2017-03-09T19:07:11Z</time>
        <name>WPT.98</name>
      </trkpt>
      <trkpt lat="35.500396000" lon="-106.838457000">
        <ele>1774.000</ele>
        <time>2017-03-09T19:07:14Z</time>
        <name>WPT.99</name>
      </trkpt>
      <trkpt lat="35.500386000" lon="-106.838506000">
        <ele>1773.000</ele>
        <time>2017-03-09T19:07:18Z</time>
        <name>WPT.100</name>
      </trkpt>
      <trkpt lat="35.500419000" lon="-106.838543000">
        <ele>1773.000</ele>
        <time>2017-03-09T19:07:22Z</time>
        <name>WPT.101</name>
      </trkpt>
      <trkpt lat="35.500455000" lon="-106.838542000">
        <ele>1774.000</ele>
        <time>2017-03-09T19:07:25Z</time>
        <name>WPT.102</name>
      </trkpt>
      <trkpt lat="35.500498000" lon="-106.838549000">
        <ele>1774.000</ele>
        <time>2017-03-09T19:07:28Z</time>
        <name>WPT.103</name>
      </trkpt>
      <trkpt lat="35.500545000" lon="-106.838549000">
        <ele>1775.000</ele>
        <time>2017-03-09T19:07:32Z</time>
        <name>WPT.104</name>
      </trkpt>
      <trkpt lat="35.500586000" lon="-106.838544000">
        <ele>1777.000</ele>
        <time>2017-03-09T19:07:36Z</time>
        <name>WPT.105</name>
      </trkpt>
      <trkpt lat="35.500626000" lon="-106.838557000">
        <ele>1776.000</ele>
        <time>2017-03-09T19:07:39Z</time>
        <name>WPT.106</name>
      </trkpt>
      <trkpt lat="35.500664000" lon="-106.838554000">
        <ele>1776.000</ele>
        <time>2017-03-09T19:07:42Z</time>
        <name>WPT.107</name>
      </trkpt>
      <trkpt lat="35.500701000" lon="-106.838545000">
        <ele>1776.000</ele>
        <time>2017-03-09T19:07:45Z</time>
        <name>WPT.108</name>
      </trkpt>
      <trkpt lat="35.500747000" lon="-106.838544000">
        <ele>1776.000</ele>
        <time>2017-03-09T19:07:49Z</time>
        <name>WPT.109</name>
      </trkpt>
      <trkpt lat="35.500794000" lon="-106.838541000">
        <ele>1777.000</ele>
        <time>2017-03-09T19:07:53Z</time>
        <name>WPT.110</name>
      </trkpt>
      <trkpt lat="35.500834000" lon="-106.838544000">
        <ele>1776.000</ele>
        <time>2017-03-09T19:07:56Z</time>
        <name>WPT.111</name>
      </trkpt>
      <trkpt lat="35.500878000" lon="-106.838537000">
        <ele>1776.000</ele>
        <time>2017-03-09T19:08:00Z</time>
        <name>WPT.112</name>
      </trkpt>
      <trkpt lat="35.500921000" lon="-106.838531000">
        <ele>1777.000</ele>
        <time>2017-03-09T19:08:05Z</time>
        <name>WPT.113</name>
      </trkpt>
      <trkpt lat="35.500960000" lon="-106.838520000">
        <ele>1777.000</ele>
        <time>2017-03-09T19:08:09Z</time>
        <name>WPT.114</name>
      </trkpt>
      <trkpt lat="35.501004000" lon="-106.838512000">
        <ele>1777.000</ele>
        <time>2017-03-09T19:08:12Z</time>
        <name>WPT.115</name>
      </trkpt>
      <trkpt lat="35.501042000" lon="-106.838506000">
        <ele>1777.000</ele>
        <time>2017-03-09T19:08:15Z</time>
        <name>WPT.116</name>
      </trkpt>
      <trkpt lat="35.501086000" lon="-106.838503000">
        <ele>1778.000</ele>
        <time>2017-03-09T19:08:19Z</time>
        <name>WPT.117</name>
      </trkpt>
      <trkpt lat="35.501135000" lon="-106.838508000">
        <ele>1778.000</ele>
        <time>2017-03-09T19:08:23Z</time>
        <name>WPT.118</name>
      </trkpt>
      <trkpt lat="35.501180000" lon="-106.838514000">
        <ele>1778.000</ele>
        <time>2017-03-09T19:08:27Z</time>
        <name>WPT.119</name>
      </trkpt>
      <trkpt lat="35.501212000" lon="-106.838493000">
        <ele>1778.000</ele>
        <time>2017-03-09T19:08:40Z</time>
        <name>WPT.120</name>
      </trkpt>
      <trkpt lat="35.501196000" lon="-106.838534000">
        <ele>1777.000</ele>
        <time>2017-03-09T19:08:55Z</time>
        <name>WPT.121</name>
      </trkpt>
      <trkpt lat="35.501234000" lon="-106.838554000">
        <ele>1777.000</ele>
        <time>2017-03-09T19:09:00Z</time>
        <name>WPT.122</name>
      </trkpt>
      <trkpt lat="35.501263000" lon="-106.838588000">
        <ele>1778.000</ele>
        <time>2017-03-09T19:09:05Z</time>
        <name>WPT.123</name>
      </trkpt>
      <trkpt lat="35.501305000" lon="-106.838590000">
        <ele>1779.000</ele>
        <time>2017-03-09T19:09:09Z</time>
        <name>WPT.124</name>
      </trkpt>
      <trkpt lat="35.501345000" lon="-106.838604000">
        <ele>1779.000</ele>
        <time>2017-03-09T19:09:14Z</time>
        <name>WPT.125</name>
      </trkpt>
      <trkpt lat="35.501388000" lon="-106.838613000">
        <ele>1779.000</ele>
        <time>2017-03-09T19:09:18Z</time>
        <name>WPT.126</name>
      </trkpt>
      <trkpt lat="35.501430000" lon="-106.838633000">
        <ele>1779.000</ele>
        <time>2017-03-09T19:09:24Z</time>
        <name>WPT.127</name>
      </trkpt>
      <trkpt lat="35.501470000" lon="-106.838647000">
        <ele>1779.000</ele>
        <time>2017-03-09T19:09:29Z</time>
        <name>WPT.128</name>
      </trkpt>
      <trkpt lat="35.501507000" lon="-106.838640000">
        <ele>1780.000</ele>
        <time>2017-03-09T19:09:33Z</time>
        <name>WPT.129</name>
      </trkpt>
      <trkpt lat="35.501547000" lon="-106.838641000">
        <ele>1781.000</ele>
        <time>2017-03-09T19:09:37Z</time>
        <name>WPT.130</name>
      </trkpt>
      <trkpt lat="35.501580000" lon="-106.838667000">
        <ele>1780.000</ele>
        <time>2017-03-09T19:09:40Z</time>
        <name>WPT.131</name>
      </trkpt>
      <trkpt lat="35.501615000" lon="-106.838682000">
        <ele>1781.000</ele>
        <time>2017-03-09T19:09:43Z</time>
        <name>WPT.132</name>
      </trkpt>
      <trkpt lat="35.501658000" lon="-106.838691000">
        <ele>1780.000</ele>
        <time>2017-03-09T19:09:47Z</time>
        <name>WPT.133</name>
      </trkpt>
      <trkpt lat="35.501697000" lon="-106.838684000">
        <ele>1782.000</ele>
        <time>2017-03-09T19:09:52Z</time>
        <name>WPT.134</name>
      </trkpt>
      <trkpt lat="35.501735000" lon="-106.838667000">
        <ele>1783.000</ele>
        <time>2017-03-09T19:09:56Z</time>
        <name>WPT.135</name>
      </trkpt>
      <trkpt lat="35.501780000" lon="-106.838675000">
        <ele>1784.000</ele>
        <time>2017-03-09T19:10:00Z</time>
        <name>WPT.136</name>
      </trkpt>
      <trkpt lat="35.501826000" lon="-106.838677000">
        <ele>1784.000</ele>
        <time>2017-03-09T19:10:04Z</time>
        <name>WPT.137</name>
      </trkpt>
      <trkpt lat="35.501868000" lon="-106.838665000">
        <ele>1785.000</ele>
        <time>2017-03-09T19:10:08Z</time>
        <name>WPT.138</name>
      </trkpt>
      <trkpt lat="35.501908000" lon="-106.838661000">
        <ele>1786.000</ele>
        <time>2017-03-09T19:10:11Z</time>
        <name>WPT.139</name>
      </trkpt>
      <trkpt lat="35.501945000" lon="-106.838672000">
        <ele>1785.000</ele>
        <time>2017-03-09T19:10:14Z</time>
        <name>WPT.140</name>
      </trkpt>
      <trkpt lat="35.501989000" lon="-106.838664000">
        <ele>1786.000</ele>
        <time>2017-03-09T19:10:18Z</time>
        <name>WPT.141</name>
      </trkpt>
      <trkpt lat="35.502035000" lon="-106.838662000">
        <ele>1786.000</ele>
        <time>2017-03-09T19:10:23Z</time>
        <name>WPT.142</name>
      </trkpt>
      <trkpt lat="35.502071000" lon="-106.838656000">
        <ele>1786.000</ele>
        <time>2017-03-09T19:10:26Z</time>
        <name>WPT.143</name>
      </trkpt>
      <trkpt lat="35.502109000" lon="-106.838654000">
        <ele>1787.000</ele>
        <time>2017-03-09T19:10:29Z</time>
        <name>WPT.144</name>
      </trkpt>
      <trkpt lat="35.502150000" lon="-106.838667000">
        <ele>1787.000</ele>
        <time>2017-03-09T19:10:33Z</time>
        <name>WPT.145</name>
      </trkpt>
      <trkpt lat="35.502190000" lon="-106.838676000">
        <ele>1787.000</ele>
        <time>2017-03-09T19:10:36Z</time>
        <name>WPT.146</name>
      </trkpt>
      <trkpt lat="35.502232000" lon="-106.838674000">
        <ele>1788.000</ele>
        <time>2017-03-09T19:10:40Z</time>
        <name>WPT.147</name>
      </trkpt>
      <trkpt lat="35.502276000" lon="-106.838677000">
        <ele>1788.000</ele>
        <time>2017-03-09T19:10:44Z</time>
        <name>WPT.148</name>
      </trkpt>
      <trkpt lat="35.502310000" lon="-106.838701000">
        <ele>1787.000</ele>
        <time>2017-03-09T19:10:47Z</time>
        <name>WPT.149</name>
      </trkpt>
      <trkpt lat="35.502360000" lon="-106.838712000">
        <ele>1788.000</ele>
        <time>2017-03-09T19:10:51Z</time>
        <name>WPT.150</name>
      </trkpt>
      <trkpt lat="35.502399000" lon="-106.838720000">
        <ele>1788.000</ele>
        <time>2017-03-09T19:10:54Z</time>
        <name>WPT.151</name>
      </trkpt>
      <trkpt lat="35.502442000" lon="-106.838730000">
        <ele>1788.000</ele>
        <time>2017-03-09T19:10:58Z</time>
        <name>WPT.152</name>
      </trkpt>
      <trkpt lat="35.502488000" lon="-106.838729000">
        <ele>1789.000</ele>
        <time>2017-03-09T19:11:02Z</time>
        <name>WPT.153</name>
      </trkpt>
      <trkpt lat="35.502523000" lon="-106.838735000">
        <ele>1790.000</ele>
        <time>2017-03-09T19:11:05Z</time>
        <name>WPT.154</name>
      </trkpt>
      <trkpt lat="35.502573000" lon="-106.838732000">
        <ele>1791.000</ele>
        <time>2017-03-09T19:11:09Z</time>
        <name>WPT.155</name>
      </trkpt>
      <trkpt lat="35.502609000" lon="-106.838717000">
        <ele>1791.000</ele>
        <time>2017-03-09T19:11:12Z</time>
        <name>WPT.156</name>
      </trkpt>
      <trkpt lat="35.502651000" lon="-106.838721000">
        <ele>1792.000</ele>
        <time>2017-03-09T19:11:15Z</time>
        <name>WPT.157</name>
      </trkpt>
      <trkpt lat="35.502693000" lon="-106.838707000">
        <ele>1793.000</ele>
        <time>2017-03-09T19:11:19Z</time>
        <name>WPT.158</name>
      </trkpt>
      <trkpt lat="35.502710000" lon="-106.838760000">
        <ele>1793.000</ele>
        <time>2017-03-09T19:11:25Z</time>
        <name>WPT.159</name>
      </trkpt>
      <trkpt lat="35.502684000" lon="-106.838790000">
        <ele>1794.000</ele>
        <time>2017-03-09T19:11:37Z</time>
        <name>WPT.160</name>
      </trkpt>
      <trkpt lat="35.502653000" lon="-106.838817000">
        <ele>1792.000</ele>
        <time>2017-03-09T19:12:19Z</time>
        <name>WPT.161</name>
      </trkpt>
      <trkpt lat="35.502693000" lon="-106.838813000">
        <ele>1794.000</ele>
        <time>2017-03-09T19:13:52Z</time>
        <name>WPT.162</name>
      </trkpt>
      <trkpt lat="35.502727000" lon="-106.838798000">
        <ele>1793.000</ele>
        <time>2017-03-09T19:13:58Z</time>
        <name>WPT.163</name>
      </trkpt>
      <trkpt lat="35.502755000" lon="-106.838767000">
        <ele>1793.000</ele>
        <time>2017-03-09T19:14:05Z</time>
        <name>WPT.164</name>
      </trkpt>
      <trkpt lat="35.502730000" lon="-106.838800000">
        <ele>1794.000</ele>
        <time>2017-03-09T19:14:23Z</time>
        <name>WPT.165</name>
      </trkpt>
      <trkpt lat="35.502711000" lon="-106.838849000">
        <ele>1793.000</ele>
        <time>2017-03-09T19:14:28Z</time>
        <name>WPT.166</name>
      </trkpt>
      <trkpt lat="35.502711000" lon="-106.838902000">
        <ele>1793.000</ele>
        <time>2017-03-09T19:14:33Z</time>
        <name>WPT.167</name>
      </trkpt>
      <trkpt lat="35.502718000" lon="-106.838948000">
        <ele>1795.000</ele>
        <time>2017-03-09T19:14:38Z</time>
        <name>WPT.168</name>
      </trkpt>
      <trkpt lat="35.502733000" lon="-106.838990000">
        <ele>1794.000</ele>
        <time>2017-03-09T19:14:41Z</time>
        <name>WPT.169</name>
      </trkpt>
      <trkpt lat="35.502744000" lon="-106.839033000">
        <ele>1794.000</ele>
        <time>2017-03-09T19:14:44Z</time>
        <name>WPT.170</name>
      </trkpt>
      <trkpt lat="35.502764000" lon="-106.839077000">
        <ele>1796.000</ele>
        <time>2017-03-09T19:14:48Z</time>
        <name>WPT.171</name>
      </trkpt>
      <trkpt lat="35.502779000" lon="-106.839122000">
        <ele>1796.000</ele>
        <time>2017-03-09T19:15:05Z</time>
        <name>WPT.172</name>
      </trkpt>
      <trkpt lat="35.502782000" lon="-106.839179000">
        <ele>1797.000</ele>
        <time>2017-03-09T19:15:09Z</time>
        <name>WPT.173</name>
      </trkpt>
      <trkpt lat="35.502773000" lon="-106.839227000">
        <ele>1796.000</ele>
        <time>2017-03-09T19:15:12Z</time>
        <name>WPT.174</name>
      </trkpt>
      <trkpt lat="35.502781000" lon="-106.839276000">
        <ele>1796.000</ele>
        <time>2017-03-09T19:15:16Z</time>
        <name>WPT.175</name>
      </trkpt>
      <trkpt lat="35.502779000" lon="-106.839322000">
        <ele>1796.000</ele>
        <time>2017-03-09T19:15:19Z</time>
        <name>WPT.176</name>
      </trkpt>
      <trkpt lat="35.502779000" lon="-106.839366000">
        <ele>1797.000</ele>
        <time>2017-03-09T19:15:22Z</time>
        <name>WPT.177</name>
      </trkpt>
      <trkpt lat="35.502770000" lon="-106.839411000">
        <ele>1797.000</ele>
        <time>2017-03-09T19:15:26Z</time>
        <name>WPT.178</name>
      </trkpt>
      <trkpt lat="35.502760000" lon="-106.839464000">
        <ele>1796.000</ele>
        <time>2017-03-09T19:15:30Z</time>
        <name>WPT.179</name>
      </trkpt>
      <trkpt lat="35.502754000" lon="-106.839509000">
        <ele>1796.000</ele>
        <time>2017-03-09T19:15:37Z</time>
        <name>WPT.180</name>
      </trkpt>
      <trkpt lat="35.502777000" lon="-106.839553000">
        <ele>1795.000</ele>
        <time>2017-03-09T19:15:42Z</time>
        <name>WPT.181</name>
      </trkpt>
      <trkpt lat="35.502805000" lon="-106.839595000">
        <ele>1796.000</ele>
        <time>2017-03-09T19:15:46Z</time>
        <name>WPT.182</name>
      </trkpt>
      <trkpt lat="35.502844000" lon="-106.839625000">
        <ele>1797.000</ele>
        <time>2017-03-09T19:15:51Z</time>
        <name>WPT.183</name>
      </trkpt>
      <trkpt lat="35.502882000" lon="-106.839620000">
        <ele>1797.000</ele>
        <time>2017-03-09T19:15:56Z</time>
        <name>WPT.184</name>
      </trkpt>
      <trkpt lat="35.502853000" lon="-106.839651000">
        <ele>1797.000</ele>
        <time>2017-03-09T19:16:12Z</time>
        <name>WPT.185</name>
      </trkpt>
      <trkpt lat="35.502824000" lon="-106.839685000">
        <ele>1796.000</ele>
        <time>2017-03-09T19:16:16Z</time>
        <name>WPT.186</name>
      </trkpt>
      <trkpt lat="35.502862000" lon="-106.839666000">
        <ele>1795.000</ele>
        <time>2017-03-09T19:16:31Z</time>
        <name>WPT.187</name>
      </trkpt>
      <trkpt lat="35.502898000" lon="-106.839629000">
        <ele>1795.000</ele>
        <time>2017-03-09T19:16:42Z</time>
        <name>WPT.188</name>
      </trkpt>
      <trkpt lat="35.502925000" lon="-106.839595000">
        <ele>1795.000</ele>
        <time>2017-03-09T19:16:46Z</time>
        <name>WPT.189</name>
      </trkpt>
      <trkpt lat="35.502954000" lon="-106.839550000">
        <ele>1795.000</ele>
        <time>2017-03-09T19:16:50Z</time>
        <name>WPT.190</name>
      </trkpt>
      <trkpt lat="35.502985000" lon="-106.839515000">
        <ele>1795.000</ele>
        <time>2017-03-09T19:16:55Z</time>
        <name>WPT.191</name>
      </trkpt>
      <trkpt lat="35.503019000" lon="-106.839480000">
        <ele>1794.000</ele>
        <time>2017-03-09T19:17:00Z</time>
        <name>WPT.192</name>
      </trkpt>
      <trkpt lat="35.503036000" lon="-106.839440000">
        <ele>1795.000</ele>
        <time>2017-03-09T19:17:06Z</time>
        <name>WPT.193</name>
      </trkpt>
      <trkpt lat="35.503054000" lon="-106.839399000">
        <ele>1795.000</ele>
        <time>2017-03-09T19:17:13Z</time>
        <name>WPT.194</name>
      </trkpt>
      <trkpt lat="35.503074000" lon="-106.839353000">
        <ele>1794.000</ele>
        <time>2017-03-09T19:17:29Z</time>
        <name>WPT.195</name>
      </trkpt>
      <trkpt lat="35.503092000" lon="-106.839314000">
        <ele>1795.000</ele>
        <time>2017-03-09T19:17:44Z</time>
        <name>WPT.196</name>
      </trkpt>
      <trkpt lat="35.503125000" lon="-106.839286000">
        <ele>1796.000</ele>
        <time>2017-03-09T19:17:48Z</time>
        <name>WPT.197</name>
      </trkpt>
      <trkpt lat="35.503151000" lon="-106.839249000">
        <ele>1796.000</ele>
        <time>2017-03-09T19:17:52Z</time>
        <name>WPT.198</name>
      </trkpt>
      <trkpt lat="35.503187000" lon="-106.839225000">
        <ele>1796.000</ele>
        <time>2017-03-09T19:17:56Z</time>
        <name>WPT.199</name>
      </trkpt>
      <trkpt lat="35.503219000" lon="-106.839190000">
        <ele>1796.000</ele>
        <time>2017-03-09T19:18:00Z</time>
        <name>WPT.200</name>
      </trkpt>
      <trkpt lat="35.503244000" lon="-106.839153000">
        <ele>1797.000</ele>
        <time>2017-03-09T19:18:04Z</time>
        <name>WPT.201</name>
      </trkpt>
      <trkpt lat="35.503281000" lon="-106.839124000">
        <ele>1796.000</ele>
        <time>2017-03-09T19:18:10Z</time>
        <name>WPT.202</name>
      </trkpt>
      <trkpt lat="35.503315000" lon="-106.839095000">
        <ele>1796.000</ele>
        <time>2017-03-09T19:18:14Z</time>
        <name>WPT.203</name>
      </trkpt>
      <trkpt lat="35.503347000" lon="-106.839066000">
        <ele>1797.000</ele>
        <time>2017-03-09T19:18:19Z</time>
        <name>WPT.204</name>
      </trkpt>
      <trkpt lat="35.503377000" lon="-106.839041000">
        <ele>1797.000</ele>
        <time>2017-03-09T19:18:23Z</time>
        <name>WPT.205</name>
      </trkpt>
      <trkpt lat="35.503417000" lon="-106.839015000">
        <ele>1798.000</ele>
        <time>2017-03-09T19:18:27Z</time>
        <name>WPT.206</name>
      </trkpt>
      <trkpt lat="35.503460000" lon="-106.839006000">
        <ele>1797.000</ele>
        <time>2017-03-09T19:18:31Z</time>
        <name>WPT.207</name>
      </trkpt>
      <trkpt lat="35.503504000" lon="-106.838997000">
        <ele>1797.000</ele>
        <time>2017-03-09T19:18:38Z</time>
        <name>WPT.208</name>
      </trkpt>
      <trkpt lat="35.503548000" lon="-106.839000000">
        <ele>1797.000</ele>
        <time>2017-03-09T19:18:42Z</time>
        <name>WPT.209</name>
      </trkpt>
      <trkpt lat="35.503586000" lon="-106.838991000">
        <ele>1797.000</ele>
        <time>2017-03-09T19:18:47Z</time>
        <name>WPT.210</name>
      </trkpt>
      <trkpt lat="35.503607000" lon="-106.839044000">
        <ele>1797.000</ele>
        <time>2017-03-09T19:18:55Z</time>
        <name>WPT.211</name>
      </trkpt>
      <trkpt lat="35.503619000" lon="-106.839096000">
        <ele>1798.000</ele>
        <time>2017-03-09T19:18:59Z</time>
        <name>WPT.212</name>
      </trkpt>
      <trkpt lat="35.503628000" lon="-106.839048000">
        <ele>1799.000</ele>
        <time>2017-03-09T19:19:11Z</time>
        <name>WPT.213</name>
      </trkpt>
      <trkpt lat="35.503634000" lon="-106.838999000">
        <ele>1800.000</ele>
        <time>2017-03-09T19:19:15Z</time>
        <name>WPT.214</name>
      </trkpt>
      <trkpt lat="35.503662000" lon="-106.838962000">
        <ele>1800.000</ele>
        <time>2017-03-09T19:19:19Z</time>
        <name>WPT.215</name>
      </trkpt>
      <trkpt lat="35.503700000" lon="-106.838963000">
        <ele>1799.000</ele>
        <time>2017-03-09T19:19:29Z</time>
        <name>WPT.216</name>
      </trkpt>
      <trkpt lat="35.503738000" lon="-106.838937000">
        <ele>1799.000</ele>
        <time>2017-03-09T19:19:33Z</time>
        <name>WPT.217</name>
      </trkpt>
      <trkpt lat="35.503777000" lon="-106.838924000">
        <ele>1799.000</ele>
        <time>2017-03-09T19:19:37Z</time>
        <name>WPT.218</name>
      </trkpt>
      <trkpt lat="35.503815000" lon="-106.838908000">
        <ele>1799.000</ele>
        <time>2017-03-09T19:19:40Z</time>
        <name>WPT.219</name>
      </trkpt>
      <trkpt lat="35.503852000" lon="-106.838893000">
        <ele>1800.000</ele>
        <time>2017-03-09T19:19:43Z</time>
        <name>WPT.220</name>
      </trkpt>
      <trkpt lat="35.503888000" lon="-106.838885000">
        <ele>1799.000</ele>
        <time>2017-03-09T19:19:46Z</time>
        <name>WPT.221</name>
      </trkpt>
      <trkpt lat="35.503928000" lon="-106.838865000">
        <ele>1801.000</ele>
        <time>2017-03-09T19:19:50Z</time>
        <name>WPT.222</name>
      </trkpt>
      <trkpt lat="35.503973000" lon="-106.838849000">
        <ele>1800.000</ele>
        <time>2017-03-09T19:19:54Z</time>
        <name>WPT.223</name>
      </trkpt>
      <trkpt lat="35.504017000" lon="-106.838831000">
        <ele>1800.000</ele>
        <time>2017-03-09T19:19:58Z</time>
        <name>WPT.224</name>
      </trkpt>
      <trkpt lat="35.504054000" lon="-106.838825000">
        <ele>1799.000</ele>
        <time>2017-03-09T19:20:01Z</time>
        <name>WPT.225</name>
      </trkpt>
      <trkpt lat="35.504092000" lon="-106.838804000">
        <ele>1800.000</ele>
        <time>2017-03-09T19:20:05Z</time>
        <name>WPT.226</name>
      </trkpt>
      <trkpt lat="35.504123000" lon="-106.838777000">
        <ele>1800.000</ele>
        <time>2017-03-09T19:20:09Z</time>
        <name>WPT.227</name>
      </trkpt>
      <trkpt lat="35.504167000" lon="-106.838755000">
        <ele>1800.000</ele>
        <time>2017-03-09T19:20:13Z</time>
        <name>WPT.228</name>
      </trkpt>
      <trkpt lat="35.504211000" lon="-106.838745000">
        <ele>1800.000</ele>
        <time>2017-03-09T19:20:17Z</time>
        <name>WPT.229</name>
      </trkpt>
      <trkpt lat="35.504249000" lon="-106.838732000">
        <ele>1800.000</ele>
        <time>2017-03-09T19:20:21Z</time>
        <name>WPT.230</name>
      </trkpt>
      <trkpt lat="35.504289000" lon="-106.838727000">
        <ele>1800.000</ele>
        <time>2017-03-09T19:20:25Z</time>
        <name>WPT.231</name>
      </trkpt>
      <trkpt lat="35.504328000" lon="-106.838723000">
        <ele>1800.000</ele>
        <time>2017-03-09T19:20:29Z</time>
        <name>WPT.232</name>
      </trkpt>
      <trkpt lat="35.504371000" lon="-106.838722000">
        <ele>1801.000</ele>
        <time>2017-03-09T19:20:33Z</time>
        <name>WPT.233</name>
      </trkpt>
      <trkpt lat="35.504414000" lon="-106.838724000">
        <ele>1802.000</ele>
        <time>2017-03-09T19:20:37Z</time>
        <name>WPT.234</name>
      </trkpt>
      <trkpt lat="35.504452000" lon="-106.838734000">
        <ele>1801.000</ele>
        <time>2017-03-09T19:20:41Z</time>
        <name>WPT.235</name>
      </trkpt>
      <trkpt lat="35.504490000" lon="-106.838756000">
        <ele>1801.000</ele>
        <time>2017-03-09T19:20:44Z</time>
        <name>WPT.236</name>
      </trkpt>
      <trkpt lat="35.504531000" lon="-106.838775000">
        <ele>1800.000</ele>
        <time>2017-03-09T19:20:48Z</time>
        <name>WPT.237</name>
      </trkpt>
      <trkpt lat="35.504574000" lon="-106.838794000">
        <ele>1800.000</ele>
        <time>2017-03-09T19:20:52Z</time>
        <name>WPT.238</name>
      </trkpt>
      <trkpt lat="35.504606000" lon="-106.838823000">
        <ele>1799.000</ele>
        <time>2017-03-09T19:20:56Z</time>
        <name>WPT.239</name>
      </trkpt>
      <trkpt lat="35.504621000" lon="-106.838865000">
        <ele>1798.000</ele>
        <time>2017-03-09T19:21:00Z</time>
        <name>WPT.240</name>
      </trkpt>
      <trkpt lat="35.504618000" lon="-106.838819000">
        <ele>1799.000</ele>
        <time>2017-03-09T19:21:34Z</time>
        <name>WPT.241</name>
      </trkpt>
      <trkpt lat="35.504655000" lon="-106.838817000">
        <ele>1798.000</ele>
        <time>2017-03-09T19:21:38Z</time>
        <name>WPT.242</name>
      </trkpt>
      <trkpt lat="35.504690000" lon="-106.838826000">
        <ele>1798.000</ele>
        <time>2017-03-09T19:21:41Z</time>
        <name>WPT.243</name>
      </trkpt>
      <trkpt lat="35.504732000" lon="-106.838808000">
        <ele>1799.000</ele>
        <time>2017-03-09T19:21:45Z</time>
        <name>WPT.244</name>
      </trkpt>
      <trkpt lat="35.504767000" lon="-106.838793000">
        <ele>1800.000</ele>
        <time>2017-03-09T19:21:49Z</time>
        <name>WPT.245</name>
      </trkpt>
      <trkpt lat="35.504800000" lon="-106.838773000">
        <ele>1799.000</ele>
        <time>2017-03-09T19:21:53Z</time>
        <name>WPT.246</name>
      </trkpt>
      <trkpt lat="35.504835000" lon="-106.838758000">
        <ele>1801.000</ele>
        <time>2017-03-09T19:22:08Z</time>
        <name>WPT.247</name>
      </trkpt>
      <trkpt lat="35.504878000" lon="-106.838741000">
        <ele>1802.000</ele>
        <time>2017-03-09T19:22:12Z</time>
        <name>WPT.248</name>
      </trkpt>
      <trkpt lat="35.504923000" lon="-106.838720000">
        <ele>1802.000</ele>
        <time>2017-03-09T19:22:16Z</time>
        <name>WPT.249</name>
      </trkpt>
      <trkpt lat="35.504958000" lon="-106.838701000">
        <ele>1802.000</ele>
        <time>2017-03-09T19:22:19Z</time>
        <name>WPT.250</name>
      </trkpt>
      <trkpt lat="35.505004000" lon="-106.838709000">
        <ele>1801.000</ele>
        <time>2017-03-09T19:22:23Z</time>
        <name>WPT.251</name>
      </trkpt>
      <trkpt lat="35.505044000" lon="-106.838711000">
        <ele>1801.000</ele>
        <time>2017-03-09T19:22:26Z</time>
        <name>WPT.252</name>
      </trkpt>
      <trkpt lat="35.505083000" lon="-106.838708000">
        <ele>1802.000</ele>
        <time>2017-03-09T19:22:30Z</time>
        <name>WPT.253</name>
      </trkpt>
      <trkpt lat="35.505132000" lon="-106.838711000">
        <ele>1803.000</ele>
        <time>2017-03-09T19:22:35Z</time>
        <name>WPT.254</name>
      </trkpt>
      <trkpt lat="35.505170000" lon="-106.838727000">
        <ele>1802.000</ele>
        <time>2017-03-09T19:22:38Z</time>
        <name>WPT.255</name>
      </trkpt>
      <trkpt lat="35.505210000" lon="-106.838746000">
        <ele>1802.000</ele>
        <time>2017-03-09T19:22:41Z</time>
        <name>WPT.256</name>
      </trkpt>
      <trkpt lat="35.505249000" lon="-106.838765000">
        <ele>1803.000</ele>
        <time>2017-03-09T19:22:45Z</time>
        <name>WPT.257</name>
      </trkpt>
      <trkpt lat="35.505285000" lon="-106.838774000">
        <ele>1803.000</ele>
        <time>2017-03-09T19:22:48Z</time>
        <name>WPT.258</name>
      </trkpt>
      <trkpt lat="35.505321000" lon="-106.838791000">
        <ele>1803.000</ele>
        <time>2017-03-09T19:22:51Z</time>
        <name>WPT.259</name>
      </trkpt>
      <trkpt lat="35.505355000" lon="-106.838813000">
        <ele>1803.000</ele>
        <time>2017-03-09T19:22:54Z</time>
        <name>WPT.260</name>
      </trkpt>
      <trkpt lat="35.505395000" lon="-106.838826000">
        <ele>1804.000</ele>
        <time>2017-03-09T19:22:58Z</time>
        <name>WPT.261</name>
      </trkpt>
      <trkpt lat="35.505432000" lon="-106.838833000">
        <ele>1805.000</ele>
        <time>2017-03-09T19:23:01Z</time>
        <name>WPT.262</name>
      </trkpt>
      <trkpt lat="35.505473000" lon="-106.838858000">
        <ele>1806.000</ele>
        <time>2017-03-09T19:23:05Z</time>
        <name>WPT.263</name>
      </trkpt>
      <trkpt lat="35.505501000" lon="-106.838890000">
        <ele>1806.000</ele>
        <time>2017-03-09T19:23:08Z</time>
        <name>WPT.264</name>
      </trkpt>
      <trkpt lat="35.505538000" lon="-106.838924000">
        <ele>1806.000</ele>
        <time>2017-03-09T19:23:12Z</time>
        <name>WPT.265</name>
      </trkpt>
      <trkpt lat="35.505569000" lon="-106.838956000">
        <ele>1806.000</ele>
        <time>2017-03-09T19:23:16Z</time>
        <name>WPT.266</name>
      </trkpt>
      <trkpt lat="35.505599000" lon="-106.838995000">
        <ele>1807.000</ele>
        <time>2017-03-09T19:23:20Z</time>
        <name>WPT.267</name>
      </trkpt>
      <trkpt lat="35.505621000" lon="-106.839035000">
        <ele>1807.000</ele>
        <time>2017-03-09T19:23:23Z</time>
        <name>WPT.268</name>
      </trkpt>
      <trkpt lat="35.505639000" lon="-106.839080000">
        <ele>1807.000</ele>
        <time>2017-03-09T19:23:26Z</time>
        <name>WPT.269</name>
      </trkpt>
      <trkpt lat="35.505651000" lon="-106.839134000">
        <ele>1807.000</ele>
        <time>2017-03-09T19:23:30Z</time>
        <name>WPT.270</name>
      </trkpt>
      <trkpt lat="35.505671000" lon="-106.839179000">
        <ele>1807.000</ele>
        <time>2017-03-09T19:23:33Z</time>
        <name>WPT.271</name>
      </trkpt>
      <trkpt lat="35.505672000" lon="-106.839229000">
        <ele>1808.000</ele>
        <time>2017-03-09T19:23:36Z</time>
        <name>WPT.272</name>
      </trkpt>
      <trkpt lat="35.505667000" lon="-106.839282000">
        <ele>1808.000</ele>
        <time>2017-03-09T19:23:40Z</time>
        <name>WPT.273</name>
      </trkpt>
      <trkpt lat="35.505698000" lon="-106.839325000">
        <ele>1808.000</ele>
        <time>2017-03-09T19:23:45Z</time>
        <name>WPT.274</name>
      </trkpt>
      <trkpt lat="35.505743000" lon="-106.839355000">
        <ele>1809.000</ele>
        <time>2017-03-09T19:23:49Z</time>
        <name>WPT.275</name>
      </trkpt>
      <trkpt lat="35.505769000" lon="-106.839387000">
        <ele>1809.000</ele>
        <time>2017-03-09T19:23:52Z</time>
        <name>WPT.276</name>
      </trkpt>
      <trkpt lat="35.505796000" lon="-106.839427000">
        <ele>1810.000</ele>
        <time>2017-03-09T19:23:56Z</time>
        <name>WPT.277</name>
      </trkpt>
      <trkpt lat="35.505830000" lon="-106.839451000">
        <ele>1810.000</ele>
        <time>2017-03-09T19:24:00Z</time>
        <name>WPT.278</name>
      </trkpt>
      <trkpt lat="35.505859000" lon="-106.839477000">
        <ele>1808.000</ele>
        <time>2017-03-09T19:24:47Z</time>
        <name>WPT.279</name>
      </trkpt>
      <trkpt lat="35.505896000" lon="-106.839474000">
        <ele>1808.000</ele>
        <time>2017-03-09T19:25:11Z</time>
        <name>WPT.280</name>
      </trkpt>
      <trkpt lat="35.505941000" lon="-106.839486000">
        <ele>1809.000</ele>
        <time>2017-03-09T19:25:15Z</time>
        <name>WPT.281</name>
      </trkpt>
      <trkpt lat="35.505975000" lon="-106.839509000">
        <ele>1810.000</ele>
        <time>2017-03-09T19:25:19Z</time>
        <name>WPT.282</name>
      </trkpt>
      <trkpt lat="35.506002000" lon="-106.839539000">
        <ele>1810.000</ele>
        <time>2017-03-09T19:25:23Z</time>
        <name>WPT.283</name>
      </trkpt>
      <trkpt lat="35.506032000" lon="-106.839571000">
        <ele>1811.000</ele>
        <time>2017-03-09T19:25:28Z</time>
        <name>WPT.284</name>
      </trkpt>
      <trkpt lat="35.506076000" lon="-106.839589000">
        <ele>1811.000</ele>
        <time>2017-03-09T19:25:33Z</time>
        <name>WPT.285</name>
      </trkpt>
      <trkpt lat="35.506111000" lon="-106.839608000">
        <ele>1812.000</ele>
        <time>2017-03-09T19:25:35Z</time>
        <name>WPT.286</name>
      </trkpt>
      <trkpt lat="35.506153000" lon="-106.839614000">
        <ele>1813.000</ele>
        <time>2017-03-09T19:25:39Z</time>
        <name>WPT.287</name>
      </trkpt>
      <trkpt lat="35.506200000" lon="-106.839619000">
        <ele>1813.000</ele>
        <time>2017-03-09T19:25:43Z</time>
        <name>WPT.288</name>
      </trkpt>
      <trkpt lat="35.506242000" lon="-106.839632000">
        <ele>1813.000</ele>
        <time>2017-03-09T19:25:46Z</time>
        <name>WPT.289</name>
      </trkpt>
      <trkpt lat="35.506280000" lon="-106.839645000">
        <ele>1813.000</ele>
        <time>2017-03-09T19:25:50Z</time>
        <name>WPT.290</name>
      </trkpt>
      <trkpt lat="35.506316000" lon="-106.839656000">
        <ele>1814.000</ele>
        <time>2017-03-09T19:25:53Z</time>
        <name>WPT.291</name>
      </trkpt>
      <trkpt lat="35.506347000" lon="-106.839681000">
        <ele>1814.000</ele>
        <time>2017-03-09T19:25:56Z</time>
        <name>WPT.292</name>
      </trkpt>
      <trkpt lat="35.506387000" lon="-106.839708000">
        <ele>1814.000</ele>
        <time>2017-03-09T19:26:00Z</time>
        <name>WPT.293</name>
      </trkpt>
      <trkpt lat="35.506428000" lon="-106.839733000">
        <ele>1815.000</ele>
        <time>2017-03-09T19:26:04Z</time>
        <name>WPT.294</name>
      </trkpt>
      <trkpt lat="35.506457000" lon="-106.839763000">
        <ele>1815.000</ele>
        <time>2017-03-09T19:26:08Z</time>
        <name>WPT.295</name>
      </trkpt>
      <trkpt lat="35.506493000" lon="-106.839795000">
        <ele>1814.000</ele>
        <time>2017-03-09T19:26:12Z</time>
        <name>WPT.296</name>
      </trkpt>
      <trkpt lat="35.506505000" lon="-106.839838000">
        <ele>1815.000</ele>
        <time>2017-03-09T19:27:07Z</time>
        <name>WPT.297</name>
      </trkpt>
      <trkpt lat="35.506486000" lon="-106.839793000">
        <ele>1816.000</ele>
        <time>2017-03-09T19:30:24Z</time>
        <name>WPT.298</name>
      </trkpt>
      <trkpt lat="35.506513000" lon="-106.839761000">
        <ele>1816.000</ele>
        <time>2017-03-09T19:30:28Z</time>
        <name>WPT.299</name>
      </trkpt>
      <trkpt lat="35.506544000" lon="-106.839723000">
        <ele>1817.000</ele>
        <time>2017-03-09T19:30:32Z</time>
        <name>WPT.300</name>
      </trkpt>
      <trkpt lat="35.506587000" lon="-106.839699000">
        <ele>1817.000</ele>
        <time>2017-03-09T19:30:36Z</time>
        <name>WPT.301</name>
      </trkpt>
      <trkpt lat="35.506631000" lon="-106.839694000">
        <ele>1817.000</ele>
        <time>2017-03-09T19:30:40Z</time>
        <name>WPT.302</name>
      </trkpt>
      <trkpt lat="35.506667000" lon="-106.839673000">
        <ele>1817.000</ele>
        <time>2017-03-09T19:30:44Z</time>
        <name>WPT.303</name>
      </trkpt>
      <trkpt lat="35.506710000" lon="-106.839657000">
        <ele>1817.000</ele>
        <time>2017-03-09T19:30:48Z</time>
        <name>WPT.304</name>
      </trkpt>
      <trkpt lat="35.506753000" lon="-106.839657000">
        <ele>1817.000</ele>
        <time>2017-03-09T19:30:52Z</time>
        <name>WPT.305</name>
      </trkpt>
      <trkpt lat="35.506786000" lon="-106.839693000">
        <ele>1817.000</ele>
        <time>2017-03-09T19:31:02Z</time>
        <name>WPT.306</name>
      </trkpt>
      <trkpt lat="35.506813000" lon="-106.839731000">
        <ele>1818.000</ele>
        <time>2017-03-09T19:31:06Z</time>
        <name>WPT.307</name>
      </trkpt>
      <trkpt lat="35.506835000" lon="-106.839766000">
        <ele>1818.000</ele>
        <time>2017-03-09T19:31:10Z</time>
        <name>WPT.308</name>
      </trkpt>
      <trkpt lat="35.506883000" lon="-106.839780000">
        <ele>1817.000</ele>
        <time>2017-03-09T19:31:14Z</time>
        <name>WPT.309</name>
      </trkpt>
      <trkpt lat="35.506909000" lon="-106.839810000">
        <ele>1816.000</ele>
        <time>2017-03-09T19:31:17Z</time>
        <name>WPT.310</name>
      </trkpt>
      <trkpt lat="35.506948000" lon="-106.839834000">
        <ele>1817.000</ele>
        <time>2017-03-09T19:31:21Z</time>
        <name>WPT.311</name>
      </trkpt>
      <trkpt lat="35.506984000" lon="-106.839847000">
        <ele>1816.000</ele>
        <time>2017-03-09T19:31:24Z</time>
        <name>WPT.312</name>
      </trkpt>
      <trkpt lat="35.507027000" lon="-106.839839000">
        <ele>1816.000</ele>
        <time>2017-03-09T19:31:28Z</time>
        <name>WPT.313</name>
      </trkpt>
      <trkpt lat="35.507059000" lon="-106.839818000">
        <ele>1816.000</ele>
        <time>2017-03-09T19:31:31Z</time>
        <name>WPT.314</name>
      </trkpt>
      <trkpt lat="35.507097000" lon="-106.839818000">
        <ele>1817.000</ele>
        <time>2017-03-09T19:31:34Z</time>
        <name>WPT.315</name>
      </trkpt>
      <trkpt lat="35.507135000" lon="-106.839792000">
        <ele>1816.000</ele>
        <time>2017-03-09T19:31:38Z</time>
        <name>WPT.316</name>
      </trkpt>
      <trkpt lat="35.507159000" lon="-106.839741000">
        <ele>1817.000</ele>
        <time>2017-03-09T19:31:43Z</time>
        <name>WPT.317</name>
      </trkpt>
      <trkpt lat="35.507181000" lon="-106.839705000">
        <ele>1817.000</ele>
        <time>2017-03-09T19:31:47Z</time>
        <name>WPT.318</name>
      </trkpt>
      <trkpt lat="35.507188000" lon="-106.839651000">
        <ele>1818.000</ele>
        <time>2017-03-09T19:31:52Z</time>
        <name>WPT.319</name>
      </trkpt>
      <trkpt lat="35.507211000" lon="-106.839617000">
        <ele>1820.000</ele>
        <time>2017-03-09T19:31:57Z</time>
        <name>WPT.320</name>
      </trkpt>
      <trkpt lat="35.507236000" lon="-106.839579000">
        <ele>1819.000</ele>
        <time>2017-03-09T19:32:03Z</time>
        <name>WPT.321</name>
      </trkpt>
      <trkpt lat="35.507265000" lon="-106.839548000">
        <ele>1820.000</ele>
        <time>2017-03-09T19:32:09Z</time>
        <name>WPT.322</name>
      </trkpt>
      <trkpt lat="35.507285000" lon="-106.839509000">
        <ele>1822.000</ele>
        <time>2017-03-09T19:32:14Z</time>
        <name>WPT.323</name>
      </trkpt>
      <trkpt lat="35.507312000" lon="-106.839539000">
        <ele>1826.000</ele>
        <time>2017-03-09T19:32:44Z</time>
        <name>WPT.324</name>
      </trkpt>
      <trkpt lat="35.507282000" lon="-106.839506000">
        <ele>1825.000</ele>
        <time>2017-03-09T19:38:53Z</time>
        <name>WPT.325</name>
      </trkpt>
      <trkpt lat="35.507261000" lon="-106.839466000">
        <ele>1825.000</ele>
        <time>2017-03-09T19:38:59Z</time>
        <name>WPT.326</name>
      </trkpt>
      <trkpt lat="35.507234000" lon="-106.839430000">
        <ele>1824.000</ele>
        <time>2017-03-09T19:39:07Z</time>
        <name>WPT.327</name>
      </trkpt>
      <trkpt lat="35.507188000" lon="-106.839423000">
        <ele>1821.000</ele>
        <time>2017-03-09T19:39:17Z</time>
        <name>WPT.328</name>
      </trkpt>
      <trkpt lat="35.507160000" lon="-106.839395000">
        <ele>1821.000</ele>
        <time>2017-03-09T19:39:21Z</time>
        <name>WPT.329</name>
      </trkpt>
      <trkpt lat="35.507128000" lon="-106.839372000">
        <ele>1819.000</ele>
        <time>2017-03-09T19:39:33Z</time>
        <name>WPT.330</name>
      </trkpt>
      <trkpt lat="35.507095000" lon="-106.839335000">
        <ele>1817.000</ele>
        <time>2017-03-09T19:39:37Z</time>
        <name>WPT.331</name>
      </trkpt>
      <trkpt lat="35.507059000" lon="-106.839311000">
        <ele>1817.000</ele>
        <time>2017-03-09T19:39:40Z</time>
        <name>WPT.332</name>
      </trkpt>
      <trkpt lat="35.507025000" lon="-106.839295000">
        <ele>1817.000</ele>
        <time>2017-03-09T19:39:43Z</time>
        <name>WPT.333</name>
      </trkpt>
      <trkpt lat="35.506997000" lon="-106.839251000">
        <ele>1817.000</ele>
        <time>2017-03-09T19:39:48Z</time>
        <name>WPT.334</name>
      </trkpt>
      <trkpt lat="35.506983000" lon="-106.839196000">
        <ele>1817.000</ele>
        <time>2017-03-09T19:39:53Z</time>
        <name>WPT.335</name>
      </trkpt>
      <trkpt lat="35.506985000" lon="-106.839138000">
        <ele>1815.000</ele>
        <time>2017-03-09T19:39:57Z</time>
        <name>WPT.336</name>
      </trkpt>
      <trkpt lat="35.506992000" lon="-106.839079000">
        <ele>1813.000</ele>
        <time>2017-03-09T19:40:01Z</time>
        <name>WPT.337</name>
      </trkpt>
      <trkpt lat="35.507002000" lon="-106.839029000">
        <ele>1813.000</ele>
        <time>2017-03-09T19:40:05Z</time>
        <name>WPT.338</name>
      </trkpt>
      <trkpt lat="35.507018000" lon="-106.838984000">
        <ele>1813.000</ele>
        <time>2017-03-09T19:40:09Z</time>
        <name>WPT.339</name>
      </trkpt>
      <trkpt lat="35.507022000" lon="-106.838933000">
        <ele>1812.000</ele>
        <time>2017-03-09T19:40:14Z</time>
        <name>WPT.340</name>
      </trkpt>
      <trkpt lat="35.507021000" lon="-106.838885000">
        <ele>1812.000</ele>
        <time>2017-03-09T19:40:18Z</time>
        <name>WPT.341</name>
      </trkpt>
      <trkpt lat="35.507009000" lon="-106.838830000">
        <ele>1812.000</ele>
        <time>2017-03-09T19:40:22Z</time>
        <name>WPT.342</name>
      </trkpt>
      <trkpt lat="35.506983000" lon="-106.838796000">
        <ele>1812.000</ele>
        <time>2017-03-09T19:40:27Z</time>
        <name>WPT.343</name>
      </trkpt>
      <trkpt lat="35.506964000" lon="-106.838754000">
        <ele>1810.000</ele>
        <time>2017-03-09T19:40:32Z</time>
        <name>WPT.344</name>
      </trkpt>
      <trkpt lat="35.506947000" lon="-106.838704000">
        <ele>1811.000</ele>
        <time>2017-03-09T19:40:36Z</time>
        <name>WPT.345</name>
      </trkpt>
      <trkpt lat="35.506930000" lon="-106.838660000">
        <ele>1810.000</ele>
        <time>2017-03-09T19:40:40Z</time>
        <name>WPT.346</name>
      </trkpt>
      <trkpt lat="35.506912000" lon="-106.838607000">
        <ele>1810.000</ele>
        <time>2017-03-09T19:40:44Z</time>
        <name>WPT.347</name>
      </trkpt>
      <trkpt lat="35.506890000" lon="-106.838557000">
        <ele>1811.000</ele>
        <time>2017-03-09T19:40:49Z</time>
        <name>WPT.348</name>
      </trkpt>
      <trkpt lat="35.506865000" lon="-106.838514000">
        <ele>1812.000</ele>
        <time>2017-03-09T19:40:53Z</time>
        <name>WPT.349</name>
      </trkpt>
      <trkpt lat="35.506859000" lon="-106.838470000">
        <ele>1812.000</ele>
        <time>2017-03-09T19:40:57Z</time>
        <name>WPT.350</name>
      </trkpt>
      <trkpt lat="35.506846000" lon="-106.838424000">
        <ele>1810.000</ele>
        <time>2017-03-09T19:41:02Z</time>
        <name>WPT.351</name>
      </trkpt>
      <trkpt lat="35.506845000" lon="-106.838373000">
        <ele>1809.000</ele>
        <time>2017-03-09T19:41:07Z</time>
        <name>WPT.352</name>
      </trkpt>
      <trkpt lat="35.506839000" lon="-106.838317000">
        <ele>1810.000</ele>
        <time>2017-03-09T19:41:11Z</time>
        <name>WPT.353</name>
      </trkpt>
      <trkpt lat="35.506849000" lon="-106.838263000">
        <ele>1809.000</ele>
        <time>2017-03-09T19:41:16Z</time>
        <name>WPT.354</name>
      </trkpt>
      <trkpt lat="35.506858000" lon="-106.838214000">
        <ele>1808.000</ele>
        <time>2017-03-09T19:41:32Z</time>
        <name>WPT.355</name>
      </trkpt>
      <trkpt lat="35.506836000" lon="-106.838171000">
        <ele>1808.000</ele>
        <time>2017-03-09T19:41:36Z</time>
        <name>WPT.356</name>
      </trkpt>
      <trkpt lat="35.506821000" lon="-106.838117000">
        <ele>1809.000</ele>
        <time>2017-03-09T19:41:40Z</time>
        <name>WPT.357</name>
      </trkpt>
      <trkpt lat="35.506827000" lon="-106.838073000">
        <ele>1808.000</ele>
        <time>2017-03-09T19:41:44Z</time>
        <name>WPT.358</name>
      </trkpt>
      <trkpt lat="35.506815000" lon="-106.838029000">
        <ele>1809.000</ele>
        <time>2017-03-09T19:41:48Z</time>
        <name>WPT.359</name>
      </trkpt>
      <trkpt lat="35.506799000" lon="-106.837985000">
        <ele>1809.000</ele>
        <time>2017-03-09T19:41:52Z</time>
        <name>WPT.360</name>
      </trkpt>
      <trkpt lat="35.506776000" lon="-106.837947000">
        <ele>1808.000</ele>
        <time>2017-03-09T19:41:56Z</time>
        <name>WPT.361</name>
      </trkpt>
      <trkpt lat="35.506754000" lon="-106.837910000">
        <ele>1809.000</ele>
        <time>2017-03-09T19:41:59Z</time>
        <name>WPT.362</name>
      </trkpt>
      <trkpt lat="35.506738000" lon="-106.837867000">
        <ele>1807.000</ele>
        <time>2017-03-09T19:42:03Z</time>
        <name>WPT.363</name>
      </trkpt>
      <trkpt lat="35.506713000" lon="-106.837831000">
        <ele>1807.000</ele>
        <time>2017-03-09T19:42:07Z</time>
        <name>WPT.364</name>
      </trkpt>
      <trkpt lat="35.506699000" lon="-106.837785000">
        <ele>1807.000</ele>
        <time>2017-03-09T19:42:13Z</time>
        <name>WPT.365</name>
      </trkpt>
      <trkpt lat="35.506670000" lon="-106.837753000">
        <ele>1804.000</ele>
        <time>2017-03-09T19:42:51Z</time>
        <name>WPT.366</name>
      </trkpt>
      <trkpt lat="35.506645000" lon="-106.837710000">
        <ele>1803.000</ele>
        <time>2017-03-09T19:42:54Z</time>
        <name>WPT.367</name>
      </trkpt>
      <trkpt lat="35.506611000" lon="-106.837686000">
        <ele>1803.000</ele>
        <time>2017-03-09T19:42:57Z</time>
        <name>WPT.368</name>
      </trkpt>
      <trkpt lat="35.506572000" lon="-106.837671000">
        <ele>1803.000</ele>
        <time>2017-03-09T19:43:01Z</time>
        <name>WPT.369</name>
      </trkpt>
      <trkpt lat="35.506540000" lon="-106.837637000">
        <ele>1804.000</ele>
        <time>2017-03-09T19:43:05Z</time>
        <name>WPT.370</name>
      </trkpt>
      <trkpt lat="35.506540000" lon="-106.837584000">
        <ele>1804.000</ele>
        <time>2017-03-09T19:43:10Z</time>
        <name>WPT.371</name>
      </trkpt>
      <trkpt lat="35.506563000" lon="-106.837544000">
        <ele>1803.000</ele>
        <time>2017-03-09T19:43:14Z</time>
        <name>WPT.372</name>
      </trkpt>
      <trkpt lat="35.506581000" lon="-106.837501000">
        <ele>1803.000</ele>
        <time>2017-03-09T19:43:19Z</time>
        <name>WPT.373</name>
      </trkpt>
      <trkpt lat="35.506563000" lon="-106.837454000">
        <ele>1802.000</ele>
        <time>2017-03-09T19:43:25Z</time>
        <name>WPT.374</name>
      </trkpt>
      <trkpt lat="35.506533000" lon="-106.837418000">
        <ele>1804.000</ele>
        <time>2017-03-09T19:43:30Z</time>
        <name>WPT.375</name>
      </trkpt>
      <trkpt lat="35.506504000" lon="-106.837383000">
        <ele>1803.000</ele>
        <time>2017-03-09T19:43:35Z</time>
        <name>WPT.376</name>
      </trkpt>
      <trkpt lat="35.506465000" lon="-106.837357000">
        <ele>1802.000</ele>
        <time>2017-03-09T19:43:47Z</time>
        <name>WPT.377</name>
      </trkpt>
      <trkpt lat="35.506441000" lon="-106.837310000">
        <ele>1803.000</ele>
        <time>2017-03-09T19:43:51Z</time>
        <name>WPT.378</name>
      </trkpt>
      <trkpt lat="35.506419000" lon="-106.837267000">
        <ele>1802.000</ele>
        <time>2017-03-09T19:43:55Z</time>
        <name>WPT.379</name>
      </trkpt>
      <trkpt lat="35.506383000" lon="-106.837238000">
        <ele>1804.000</ele>
        <time>2017-03-09T19:43:59Z</time>
        <name>WPT.380</name>
      </trkpt>
      <trkpt lat="35.506354000" lon="-106.837206000">
        <ele>1802.000</ele>
        <time>2017-03-09T19:44:06Z</time>
        <name>WPT.381</name>
      </trkpt>
      <trkpt lat="35.506332000" lon="-106.837169000">
        <ele>1801.000</ele>
        <time>2017-03-09T19:44:14Z</time>
        <name>WPT.382</name>
      </trkpt>
      <trkpt lat="35.506322000" lon="-106.837114000">
        <ele>1801.000</ele>
        <time>2017-03-09T19:44:20Z</time>
        <name>WPT.383</name>
      </trkpt>
      <trkpt lat="35.506321000" lon="-106.837064000">
        <ele>1800.000</ele>
        <time>2017-03-09T19:44:24Z</time>
        <name>WPT.384</name>
      </trkpt>
      <trkpt lat="35.506325000" lon="-106.837009000">
        <ele>1799.000</ele>
        <time>2017-03-09T19:44:28Z</time>
        <name>WPT.385</name>
      </trkpt>
      <trkpt lat="35.506318000" lon="-106.836958000">
        <ele>1799.000</ele>
        <time>2017-03-09T19:44:33Z</time>
        <name>WPT.386</name>
      </trkpt>
      <trkpt lat="35.506296000" lon="-106.836914000">
        <ele>1799.000</ele>
        <time>2017-03-09T19:44:38Z</time>
        <name>WPT.387</name>
      </trkpt>
      <trkpt lat="35.506269000" lon="-106.836874000">
        <ele>1797.000</ele>
        <time>2017-03-09T19:44:43Z</time>
        <name>WPT.388</name>
      </trkpt>
      <trkpt lat="35.506247000" lon="-106.836838000">
        <ele>1797.000</ele>
        <time>2017-03-09T19:44:47Z</time>
        <name>WPT.389</name>
      </trkpt>
      <trkpt lat="35.506224000" lon="-106.836794000">
        <ele>1796.000</ele>
        <time>2017-03-09T19:44:51Z</time>
        <name>WPT.390</name>
      </trkpt>
      <trkpt lat="35.506211000" lon="-106.836742000">
        <ele>1796.000</ele>
        <time>2017-03-09T19:44:55Z</time>
        <name>WPT.391</name>
      </trkpt>
      <trkpt lat="35.506196000" lon="-106.836691000">
        <ele>1796.000</ele>
        <time>2017-03-09T19:44:59Z</time>
        <name>WPT.392</name>
      </trkpt>
      <trkpt lat="35.506176000" lon="-106.836647000">
        <ele>1796.000</ele>
        <time>2017-03-09T19:45:04Z</time>
        <name>WPT.393</name>
      </trkpt>
      <trkpt lat="35.506141000" lon="-106.836617000">
        <ele>1796.000</ele>
        <time>2017-03-09T19:45:09Z</time>
        <name>WPT.394</name>
      </trkpt>
      <trkpt lat="35.506095000" lon="-106.836604000">
        <ele>1794.000</ele>
        <time>2017-03-09T19:45:13Z</time>
        <name>WPT.395</name>
      </trkpt>
      <trkpt lat="35.506058000" lon="-106.836601000">
        <ele>1795.000</ele>
        <time>2017-03-09T19:45:16Z</time>
        <name>WPT.396</name>
      </trkpt>
      <trkpt lat="35.506017000" lon="-106.836618000">
        <ele>1795.000</ele>
        <time>2017-03-09T19:45:20Z</time>
        <name>WPT.397</name>
      </trkpt>
      <trkpt lat="35.505975000" lon="-106.836601000">
        <ele>1795.000</ele>
        <time>2017-03-09T19:45:24Z</time>
        <name>WPT.398</name>
      </trkpt>
      <trkpt lat="35.505943000" lon="-106.836571000">
        <ele>1796.000</ele>
        <time>2017-03-09T19:45:28Z</time>
        <name>WPT.399</name>
      </trkpt>
      <trkpt lat="35.505901000" lon="-106.836551000">
        <ele>1796.000</ele>
        <time>2017-03-09T19:45:32Z</time>
        <name>WPT.400</name>
      </trkpt>
      <trkpt lat="35.505863000" lon="-106.836547000">
        <ele>1797.000</ele>
        <time>2017-03-09T19:45:36Z</time>
        <name>WPT.401</name>
      </trkpt>
      <trkpt lat="35.505825000" lon="-106.836548000">
        <ele>1796.000</ele>
        <time>2017-03-09T19:45:39Z</time>
        <name>WPT.402</name>
      </trkpt>
      <trkpt lat="35.505785000" lon="-106.836541000">
        <ele>1796.000</ele>
        <time>2017-03-09T19:46:11Z</time>
        <name>WPT.403</name>
      </trkpt>
      <trkpt lat="35.505739000" lon="-106.836550000">
        <ele>1796.000</ele>
        <time>2017-03-09T19:46:15Z</time>
        <name>WPT.404</name>
      </trkpt>
      <trkpt lat="35.505709000" lon="-106.836513000">
        <ele>1795.000</ele>
        <time>2017-03-09T19:46:19Z</time>
        <name>WPT.405</name>
      </trkpt>
      <trkpt lat="35.505697000" lon="-106.836466000">
        <ele>1795.000</ele>
        <time>2017-03-09T19:46:23Z</time>
        <name>WPT.406</name>
      </trkpt>
      <trkpt lat="35.505691000" lon="-106.836417000">
        <ele>1793.000</ele>
        <time>2017-03-09T19:46:27Z</time>
        <name>WPT.407</name>
      </trkpt>
      <trkpt lat="35.505687000" lon="-106.836365000">
        <ele>1793.000</ele>
        <time>2017-03-09T19:46:31Z</time>
        <name>WPT.408</name>
      </trkpt>
      <trkpt lat="35.505683000" lon="-106.836314000">
        <ele>1792.000</ele>
        <time>2017-03-09T19:46:35Z</time>
        <name>WPT.409</name>
      </trkpt>
      <trkpt lat="35.505665000" lon="-106.836263000">
        <ele>1792.000</ele>
        <time>2017-03-09T19:46:39Z</time>
        <name>WPT.410</name>
      </trkpt>
      <trkpt lat="35.505642000" lon="-106.836218000">
        <ele>1792.000</ele>
        <time>2017-03-09T19:46:43Z</time>
        <name>WPT.411</name>
      </trkpt>
      <trkpt lat="35.505627000" lon="-106.836175000">
        <ele>1792.000</ele>
        <time>2017-03-09T19:46:46Z</time>
        <name>WPT.412</name>
      </trkpt>
      <trkpt lat="35.505614000" lon="-106.836124000">
        <ele>1792.000</ele>
        <time>2017-03-09T19:46:50Z</time>
        <name>WPT.413</name>
      </trkpt>
      <trkpt lat="35.505609000" lon="-106.836078000">
        <ele>1792.000</ele>
        <time>2017-03-09T19:46:53Z</time>
        <name>WPT.414</name>
      </trkpt>
      <trkpt lat="35.505596000" lon="-106.836033000">
        <ele>1792.000</ele>
        <time>2017-03-09T19:46:57Z</time>
        <name>WPT.415</name>
      </trkpt>
      <trkpt lat="35.505585000" lon="-106.835978000">
        <ele>1789.000</ele>
        <time>2017-03-09T19:47:18Z</time>
        <name>WPT.416</name>
      </trkpt>
      <trkpt lat="35.505572000" lon="-106.835926000">
        <ele>1789.000</ele>
        <time>2017-03-09T19:47:22Z</time>
        <name>WPT.417</name>
      </trkpt>
      <trkpt lat="35.505559000" lon="-106.835883000">
        <ele>1790.000</ele>
        <time>2017-03-09T19:47:25Z</time>
        <name>WPT.418</name>
      </trkpt>
      <trkpt lat="35.505547000" lon="-106.835831000">
        <ele>1789.000</ele>
        <time>2017-03-09T19:47:29Z</time>
        <name>WPT.419</name>
      </trkpt>
      <trkpt lat="35.505539000" lon="-106.835773000">
        <ele>1789.000</ele>
        <time>2017-03-09T19:47:33Z</time>
        <name>WPT.420</name>
      </trkpt>
      <trkpt lat="35.505523000" lon="-106.835723000">
        <ele>1789.000</ele>
        <time>2017-03-09T19:47:37Z</time>
        <name>WPT.421</name>
      </trkpt>
      <trkpt lat="35.505503000" lon="-106.835676000">
        <ele>1789.000</ele>
        <time>2017-03-09T19:47:41Z</time>
        <name>WPT.422</name>
      </trkpt>
      <trkpt lat="35.505472000" lon="-106.835637000">
        <ele>1789.000</ele>
        <time>2017-03-09T19:47:45Z</time>
        <name>WPT.423</name>
      </trkpt>
      <trkpt lat="35.505456000" lon="-106.835588000">
        <ele>1789.000</ele>
        <time>2017-03-09T19:47:49Z</time>
        <name>WPT.424</name>
      </trkpt>
      <trkpt lat="35.505428000" lon="-106.835540000">
        <ele>1789.000</ele>
        <time>2017-03-09T19:47:55Z</time>
        <name>WPT.425</name>
      </trkpt>
      <trkpt lat="35.505413000" lon="-106.835499000">
        <ele>1789.000</ele>
        <time>2017-03-09T19:48:02Z</time>
        <name>WPT.426</name>
      </trkpt>
      <trkpt lat="35.505426000" lon="-106.835456000">
        <ele>1789.000</ele>
        <time>2017-03-09T19:48:06Z</time>
        <name>WPT.427</name>
      </trkpt>
      <trkpt lat="35.505426000" lon="-106.835402000">
        <ele>1789.000</ele>
        <time>2017-03-09T19:48:27Z</time>
        <name>WPT.428</name>
      </trkpt>
      <trkpt lat="35.505400000" lon="-106.835359000">
        <ele>1788.000</ele>
        <time>2017-03-09T19:48:31Z</time>
        <name>WPT.429</name>
      </trkpt>
      <trkpt lat="35.505360000" lon="-106.835333000">
        <ele>1788.000</ele>
        <time>2017-03-09T19:48:35Z</time>
        <name>WPT.430</name>
      </trkpt>
      <trkpt lat="35.505323000" lon="-106.835299000">
        <ele>1789.000</ele>
        <time>2017-03-09T19:48:39Z</time>
        <name>WPT.431</name>
      </trkpt>
      <trkpt lat="35.505281000" lon="-106.835280000">
        <ele>1789.000</ele>
        <time>2017-03-09T19:48:43Z</time>
        <name>WPT.432</name>
      </trkpt>
      <trkpt lat="35.505240000" lon="-106.835301000">
        <ele>1787.000</ele>
        <time>2017-03-09T19:49:11Z</time>
        <name>WPT.433</name>
      </trkpt>
      <trkpt lat="35.505276000" lon="-106.835312000">
        <ele>1789.000</ele>
        <time>2017-03-09T19:49:20Z</time>
        <name>WPT.434</name>
      </trkpt>
      <trkpt lat="35.505318000" lon="-106.835302000">
        <ele>1789.000</ele>
        <time>2017-03-09T19:49:24Z</time>
        <name>WPT.435</name>
      </trkpt>
      <trkpt lat="35.505358000" lon="-106.835299000">
        <ele>1790.000</ele>
        <time>2017-03-09T19:49:28Z</time>
        <name>WPT.436</name>
      </trkpt>
      <trkpt lat="35.505399000" lon="-106.835294000">
        <ele>1790.000</ele>
        <time>2017-03-09T19:49:32Z</time>
        <name>WPT.437</name>
      </trkpt>
      <trkpt lat="35.505435000" lon="-106.835283000">
        <ele>1790.000</ele>
        <time>2017-03-09T19:49:37Z</time>
        <name>WPT.438</name>
      </trkpt>
      <trkpt lat="35.505460000" lon="-106.835243000">
        <ele>1789.000</ele>
        <time>2017-03-09T19:49:48Z</time>
        <name>WPT.439</name>
      </trkpt>
      <trkpt lat="35.505493000" lon="-106.835219000">
        <ele>1789.000</ele>
        <time>2017-03-09T19:49:52Z</time>
        <name>WPT.440</name>
      </trkpt>
      <trkpt lat="35.505535000" lon="-106.835207000">
        <ele>1788.000</ele>
        <time>2017-03-09T19:49:57Z</time>
        <name>WPT.441</name>
      </trkpt>
      <trkpt lat="35.505567000" lon="-106.835230000">
        <ele>1790.000</ele>
        <time>2017-03-09T19:50:03Z</time>
        <name>WPT.442</name>
      </trkpt>
      <trkpt lat="35.505596000" lon="-106.835202000">
        <ele>1790.000</ele>
        <time>2017-03-09T19:50:11Z</time>
        <name>WPT.443</name>
      </trkpt>
      <trkpt lat="35.505634000" lon="-106.835179000">
        <ele>1789.000</ele>
        <time>2017-03-09T19:50:15Z</time>
        <name>WPT.444</name>
      </trkpt>
      <trkpt lat="35.505670000" lon="-106.835166000">
        <ele>1789.000</ele>
        <time>2017-03-09T19:50:22Z</time>
        <name>WPT.445</name>
      </trkpt>
      <trkpt lat="35.505706000" lon="-106.835153000">
        <ele>1789.000</ele>
        <time>2017-03-09T19:50:26Z</time>
        <name>WPT.446</name>
      </trkpt>
      <trkpt lat="35.505745000" lon="-106.835143000">
        <ele>1788.000</ele>
        <time>2017-03-09T19:50:30Z</time>
        <name>WPT.447</name>
      </trkpt>
      <trkpt lat="35.505787000" lon="-106.835133000">
        <ele>1788.000</ele>
        <time>2017-03-09T19:50:34Z</time>
        <name>WPT.448</name>
      </trkpt>
      <trkpt lat="35.505833000" lon="-106.835140000">
        <ele>1789.000</ele>
        <time>2017-03-09T19:50:39Z</time>
        <name>WPT.449</name>
      </trkpt>
      <trkpt lat="35.505871000" lon="-106.835147000">
        <ele>1789.000</ele>
        <time>2017-03-09T19:50:44Z</time>
        <name>WPT.450</name>
      </trkpt>
      <trkpt lat="35.505908000" lon="-106.835123000">
        <ele>1787.000</ele>
        <time>2017-03-09T19:50:56Z</time>
        <name>WPT.451</name>
      </trkpt>
      <trkpt lat="35.505941000" lon="-106.835094000">
        <ele>1785.000</ele>
        <time>2017-03-09T19:51:01Z</time>
        <name>WPT.452</name>
      </trkpt>
      <trkpt lat="35.505976000" lon="-106.835076000">
        <ele>1784.000</ele>
        <time>2017-03-09T19:51:05Z</time>
        <name>WPT.453</name>
      </trkpt>
      <trkpt lat="35.506016000" lon="-106.835058000">
        <ele>1784.000</ele>
        <time>2017-03-09T19:51:09Z</time>
        <name>WPT.454</name>
      </trkpt>
      <trkpt lat="35.506050000" lon="-106.835034000">
        <ele>1784.000</ele>
        <time>2017-03-09T19:51:12Z</time>
        <name>WPT.455</name>
      </trkpt>
      <trkpt lat="35.506085000" lon="-106.835006000">
        <ele>1785.000</ele>
        <time>2017-03-09T19:51:16Z</time>
        <name>WPT.456</name>
      </trkpt>
      <trkpt lat="35.506127000" lon="-106.834988000">
        <ele>1783.000</ele>
        <time>2017-03-09T19:51:20Z</time>
        <name>WPT.457</name>
      </trkpt>
      <trkpt lat="35.506165000" lon="-106.834973000">
        <ele>1783.000</ele>
        <time>2017-03-09T19:51:23Z</time>
        <name>WPT.458</name>
      </trkpt>
      <trkpt lat="35.506207000" lon="-106.834960000">
        <ele>1782.000</ele>
        <time>2017-03-09T19:51:27Z</time>
        <name>WPT.459</name>
      </trkpt>
      <trkpt lat="35.506251000" lon="-106.834952000">
        <ele>1782.000</ele>
        <time>2017-03-09T19:51:31Z</time>
        <name>WPT.460</name>
      </trkpt>
      <trkpt lat="35.506279000" lon="-106.834907000">
        <ele>1783.000</ele>
        <time>2017-03-09T19:51:53Z</time>
        <name>WPT.461</name>
      </trkpt>
      <trkpt lat="35.506312000" lon="-106.834872000">
        <ele>1782.000</ele>
        <time>2017-03-09T19:51:57Z</time>
        <name>WPT.462</name>
      </trkpt>
      <trkpt lat="35.506347000" lon="-106.834841000">
        <ele>1783.000</ele>
        <time>2017-03-09T19:52:01Z</time>
        <name>WPT.463</name>
      </trkpt>
      <trkpt lat="35.506386000" lon="-106.834816000">
        <ele>1783.000</ele>
        <time>2017-03-09T19:53:05Z</time>
        <name>WPT.464</name>
      </trkpt>
      <trkpt lat="35.506423000" lon="-106.834798000">
        <ele>1783.000</ele>
        <time>2017-03-09T19:53:09Z</time>
        <name>WPT.465</name>
      </trkpt>
      <trkpt lat="35.506462000" lon="-106.834764000">
        <ele>1784.000</ele>
        <time>2017-03-09T19:53:13Z</time>
        <name>WPT.466</name>
      </trkpt>
      <trkpt lat="35.506498000" lon="-106.834752000">
        <ele>1785.000</ele>
        <time>2017-03-09T19:53:36Z</time>
        <name>WPT.467</name>
      </trkpt>
      <trkpt lat="35.506532000" lon="-106.834723000">
        <ele>1783.000</ele>
        <time>2017-03-09T19:53:42Z</time>
        <name>WPT.468</name>
      </trkpt>
      <trkpt lat="35.506562000" lon="-106.834692000">
        <ele>1784.000</ele>
        <time>2017-03-09T19:53:46Z</time>
        <name>WPT.469</name>
      </trkpt>
      <trkpt lat="35.506607000" lon="-106.834672000">
        <ele>1783.000</ele>
        <time>2017-03-09T19:53:51Z</time>
        <name>WPT.470</name>
      </trkpt>
      <trkpt lat="35.506651000" lon="-106.834668000">
        <ele>1784.000</ele>
        <time>2017-03-09T19:53:56Z</time>
        <name>WPT.471</name>
      </trkpt>
      <trkpt lat="35.506694000" lon="-106.834673000">
        <ele>1784.000</ele>
        <time>2017-03-09T19:54:11Z</time>
        <name>WPT.472</name>
      </trkpt>
      <trkpt lat="35.506730000" lon="-106.834662000">
        <ele>1783.000</ele>
        <time>2017-03-09T19:54:14Z</time>
        <name>WPT.473</name>
      </trkpt>
      <trkpt lat="35.506767000" lon="-106.834659000">
        <ele>1783.000</ele>
        <time>2017-03-09T19:54:17Z</time>
        <name>WPT.474</name>
      </trkpt>
      <trkpt lat="35.506800000" lon="-106.834678000">
        <ele>1784.000</ele>
        <time>2017-03-09T19:54:23Z</time>
        <name>WPT.475</name>
      </trkpt>
      <trkpt lat="35.506839000" lon="-106.834684000">
        <ele>1785.000</ele>
        <time>2017-03-09T19:54:28Z</time>
        <name>WPT.476</name>
      </trkpt>
      <trkpt lat="35.506876000" lon="-106.834686000">
        <ele>1785.000</ele>
        <time>2017-03-09T19:54:32Z</time>
        <name>WPT.477</name>
      </trkpt>
      <trkpt lat="35.506917000" lon="-106.834691000">
        <ele>1786.000</ele>
        <time>2017-03-09T19:54:37Z</time>
        <name>WPT.478</name>
      </trkpt>
      <trkpt lat="35.506953000" lon="-106.834705000">
        <ele>1787.000</ele>
        <time>2017-03-09T19:54:52Z</time>
        <name>WPT.479</name>
      </trkpt>
      <trkpt lat="35.506989000" lon="-106.834700000">
        <ele>1784.000</ele>
        <time>2017-03-09T19:54:57Z</time>
        <name>WPT.480</name>
      </trkpt>
      <trkpt lat="35.507025000" lon="-106.834689000">
        <ele>1784.000</ele>
        <time>2017-03-09T19:55:02Z</time>
        <name>WPT.481</name>
      </trkpt>
      <trkpt lat="35.507066000" lon="-106.834688000">
        <ele>1783.000</ele>
        <time>2017-03-09T19:55:07Z</time>
        <name>WPT.482</name>
      </trkpt>
      <trkpt lat="35.507105000" lon="-106.834666000">
        <ele>1783.000</ele>
        <time>2017-03-09T19:55:12Z</time>
        <name>WPT.483</name>
      </trkpt>
      <trkpt lat="35.507141000" lon="-106.834671000">
        <ele>1781.000</ele>
        <time>2017-03-09T19:55:20Z</time>
        <name>WPT.484</name>
      </trkpt>
      <trkpt lat="35.507168000" lon="-106.834635000">
        <ele>1781.000</ele>
        <time>2017-03-09T19:55:23Z</time>
        <name>WPT.485</name>
      </trkpt>
      <trkpt lat="35.507204000" lon="-106.834620000">
        <ele>1781.000</ele>
        <time>2017-03-09T19:55:28Z</time>
        <name>WPT.486</name>
      </trkpt>
      <trkpt lat="35.507250000" lon="-106.834609000">
        <ele>1782.000</ele>
        <time>2017-03-09T19:55:33Z</time>
        <name>WPT.487</name>
      </trkpt>
      <trkpt lat="35.507283000" lon="-106.834584000">
        <ele>1781.000</ele>
        <time>2017-03-09T19:55:42Z</time>
        <name>WPT.488</name>
      </trkpt>
      <trkpt lat="35.507240000" lon="-106.834609000">
        <ele>1781.000</ele>
        <time>2017-03-09T19:56:29Z</time>
        <name>WPT.489</name>
      </trkpt>
      <trkpt lat="35.507204000" lon="-106.834619000">
        <ele>1780.000</ele>
        <time>2017-03-09T19:56:35Z</time>
        <name>WPT.490</name>
      </trkpt>
      <trkpt lat="35.507171000" lon="-106.834653000">
        <ele>1781.000</ele>
        <time>2017-03-09T19:58:00Z</time>
        <name>WPT.491</name>
      </trkpt>
      <trkpt lat="35.507141000" lon="-106.834683000">
        <ele>1781.000</ele>
        <time>2017-03-09T19:58:04Z</time>
        <name>WPT.492</name>
      </trkpt>
      <trkpt lat="35.507102000" lon="-106.834691000">
        <ele>1782.000</ele>
        <time>2017-03-09T19:58:11Z</time>
        <name>WPT.493</name>
      </trkpt>
      <trkpt lat="35.507065000" lon="-106.834713000">
        <ele>1783.000</ele>
        <time>2017-03-09T19:58:16Z</time>
        <name>WPT.494</name>
      </trkpt>
      <trkpt lat="35.507022000" lon="-106.834706000">
        <ele>1783.000</ele>
        <time>2017-03-09T19:58:20Z</time>
        <name>WPT.495</name>
      </trkpt>
      <trkpt lat="35.506984000" lon="-106.834726000">
        <ele>1784.000</ele>
        <time>2017-03-09T19:58:24Z</time>
        <name>WPT.496</name>
      </trkpt>
      <trkpt lat="35.506945000" lon="-106.834745000">
        <ele>1787.000</ele>
        <time>2017-03-09T19:58:38Z</time>
        <name>WPT.497</name>
      </trkpt>
      <trkpt lat="35.506904000" lon="-106.834747000">
        <ele>1787.000</ele>
        <time>2017-03-09T19:58:43Z</time>
        <name>WPT.498</name>
      </trkpt>
      <trkpt lat="35.506867000" lon="-106.834747000">
        <ele>1788.000</ele>
        <time>2017-03-09T19:58:47Z</time>
        <name>WPT.499</name>
      </trkpt>
      <trkpt lat="35.506824000" lon="-106.834752000">
        <ele>1786.000</ele>
        <time>2017-03-09T19:58:52Z</time>
        <name>WPT.500</name>
      </trkpt>
      <trkpt lat="35.506784000" lon="-106.834752000">
        <ele>1786.000</ele>
        <time>2017-03-09T19:58:56Z</time>
        <name>WPT.501</name>
      </trkpt>
      <trkpt lat="35.506737000" lon="-106.834744000">
        <ele>1784.000</ele>
        <time>2017-03-09T19:59:01Z</time>
        <name>WPT.502</name>
      </trkpt>
      <trkpt lat="35.506692000" lon="-106.834743000">
        <ele>1784.000</ele>
        <time>2017-03-09T19:59:06Z</time>
        <name>WPT.503</name>
      </trkpt>
      <trkpt lat="35.506660000" lon="-106.834724000">
        <ele>1783.000</ele>
        <time>2017-03-09T19:59:10Z</time>
        <name>WPT.504</name>
      </trkpt>
      <trkpt lat="35.506619000" lon="-106.834719000">
        <ele>1782.000</ele>
        <time>2017-03-09T19:59:15Z</time>
        <name>WPT.505</name>
      </trkpt>
      <trkpt lat="35.506578000" lon="-106.834741000">
        <ele>1783.000</ele>
        <time>2017-03-09T19:59:19Z</time>
        <name>WPT.506</name>
      </trkpt>
      <trkpt lat="35.506537000" lon="-106.834759000">
        <ele>1781.000</ele>
        <time>2017-03-09T19:59:25Z</time>
        <name>WPT.507</name>
      </trkpt>
      <trkpt lat="35.506496000" lon="-106.834768000">
        <ele>1780.000</ele>
        <time>2017-03-09T19:59:55Z</time>
        <name>WPT.508</name>
      </trkpt>
      <trkpt lat="35.506464000" lon="-106.834792000">
        <ele>1781.000</ele>
        <time>2017-03-09T19:59:58Z</time>
        <name>WPT.509</name>
      </trkpt>
      <trkpt lat="35.506428000" lon="-106.834821000">
        <ele>1782.000</ele>
        <time>2017-03-09T20:00:01Z</time>
        <name>WPT.510</name>
      </trkpt>
      <trkpt lat="35.506396000" lon="-106.834849000">
        <ele>1779.000</ele>
        <time>2017-03-09T20:00:04Z</time>
        <name>WPT.511</name>
      </trkpt>
      <trkpt lat="35.506358000" lon="-106.834876000">
        <ele>1778.000</ele>
        <time>2017-03-09T20:00:08Z</time>
        <name>WPT.512</name>
      </trkpt>
      <trkpt lat="35.506325000" lon="-106.834897000">
        <ele>1776.000</ele>
        <time>2017-03-09T20:00:11Z</time>
        <name>WPT.513</name>
      </trkpt>
      <trkpt lat="35.506294000" lon="-106.834930000">
        <ele>1777.000</ele>
        <time>2017-03-09T20:00:14Z</time>
        <name>WPT.514</name>
      </trkpt>
      <trkpt lat="35.506254000" lon="-106.834958000">
        <ele>1777.000</ele>
        <time>2017-03-09T20:00:19Z</time>
        <name>WPT.515</name>
      </trkpt>
      <trkpt lat="35.506216000" lon="-106.834980000">
        <ele>1780.000</ele>
        <time>2017-03-09T20:00:23Z</time>
        <name>WPT.516</name>
      </trkpt>
      <trkpt lat="35.506170000" lon="-106.834992000">
        <ele>1781.000</ele>
        <time>2017-03-09T20:00:27Z</time>
        <name>WPT.517</name>
      </trkpt>
      <trkpt lat="35.506135000" lon="-106.835006000">
        <ele>1780.000</ele>
        <time>2017-03-09T20:00:30Z</time>
        <name>WPT.518</name>
      </trkpt>
      <trkpt lat="35.506099000" lon="-106.835028000">
        <ele>1781.000</ele>
        <time>2017-03-09T20:00:34Z</time>
        <name>WPT.519</name>
      </trkpt>
      <trkpt lat="35.506069000" lon="-106.835060000">
        <ele>1777.000</ele>
        <time>2017-03-09T20:00:39Z</time>
        <name>WPT.520</name>
      </trkpt>
      <trkpt lat="35.506023000" lon="-106.835081000">
        <ele>1778.000</ele>
        <time>2017-03-09T20:00:43Z</time>
        <name>WPT.521</name>
      </trkpt>
      <trkpt lat="35.505987000" lon="-106.835083000">
        <ele>1779.000</ele>
        <time>2017-03-09T20:00:46Z</time>
        <name>WPT.522</name>
      </trkpt>
      <trkpt lat="35.505949000" lon="-106.835106000">
        <ele>1779.000</ele>
        <time>2017-03-09T20:00:50Z</time>
        <name>WPT.523</name>
      </trkpt>
      <trkpt lat="35.505913000" lon="-106.835124000">
        <ele>1779.000</ele>
        <time>2017-03-09T20:00:54Z</time>
        <name>WPT.524</name>
      </trkpt>
      <trkpt lat="35.505870000" lon="-106.835134000">
        <ele>1782.000</ele>
        <time>2017-03-09T20:00:58Z</time>
        <name>WPT.525</name>
      </trkpt>
      <trkpt lat="35.505818000" lon="-106.835133000">
        <ele>1784.000</ele>
        <time>2017-03-09T20:01:02Z</time>
        <name>WPT.526</name>
      </trkpt>
      <trkpt lat="35.505780000" lon="-106.835131000">
        <ele>1787.000</ele>
        <time>2017-03-09T20:01:06Z</time>
        <name>WPT.527</name>
      </trkpt>
      <trkpt lat="35.505734000" lon="-106.835141000">
        <ele>1785.000</ele>
        <time>2017-03-09T20:01:11Z</time>
        <name>WPT.528</name>
      </trkpt>
      <trkpt lat="35.505702000" lon="-106.835163000">
        <ele>1787.000</ele>
        <time>2017-03-09T20:01:14Z</time>
        <name>WPT.529</name>
      </trkpt>
      <trkpt lat="35.505664000" lon="-106.835184000">
        <ele>1787.000</ele>
        <time>2017-03-09T20:01:18Z</time>
        <name>WPT.530</name>
      </trkpt>
      <trkpt lat="35.505625000" lon="-106.835216000">
        <ele>1789.000</ele>
        <time>2017-03-09T20:01:22Z</time>
        <name>WPT.531</name>
      </trkpt>
      <trkpt lat="35.505590000" lon="-106.835243000">
        <ele>1793.000</ele>
        <time>2017-03-09T20:01:26Z</time>
        <name>WPT.532</name>
      </trkpt>
      <trkpt lat="35.505564000" lon="-106.835275000">
        <ele>1792.000</ele>
        <time>2017-03-09T20:01:30Z</time>
        <name>WPT.533</name>
      </trkpt>
      <trkpt lat="35.505526000" lon="-106.835283000">
        <ele>1790.000</ele>
        <time>2017-03-09T20:01:37Z</time>
        <name>WPT.534</name>
      </trkpt>
      <trkpt lat="35.505484000" lon="-106.835323000">
        <ele>1790.000</ele>
        <time>2017-03-09T20:01:41Z</time>
        <name>WPT.535</name>
      </trkpt>
      <trkpt lat="35.505450000" lon="-106.835341000">
        <ele>1796.000</ele>
        <time>2017-03-09T20:01:47Z</time>
        <name>WPT.536</name>
      </trkpt>
      <trkpt lat="35.505416000" lon="-106.835367000">
        <ele>1796.000</ele>
        <time>2017-03-09T20:01:52Z</time>
        <name>WPT.537</name>
      </trkpt>
      <trkpt lat="35.505404000" lon="-106.835414000">
        <ele>1793.000</ele>
        <time>2017-03-09T20:02:28Z</time>
        <name>WPT.538</name>
      </trkpt>
      <trkpt lat="35.505410000" lon="-106.835469000">
        <ele>1794.000</ele>
        <time>2017-03-09T20:02:33Z</time>
        <name>WPT.539</name>
      </trkpt>
      <trkpt lat="35.505396000" lon="-106.835515000">
        <ele>1796.000</ele>
        <time>2017-03-09T20:02:38Z</time>
        <name>WPT.540</name>
      </trkpt>
      <trkpt lat="35.505399000" lon="-106.835561000">
        <ele>1797.000</ele>
        <time>2017-03-09T20:03:18Z</time>
        <name>WPT.541</name>
      </trkpt>
      <trkpt lat="35.505390000" lon="-106.835606000">
        <ele>1798.000</ele>
        <time>2017-03-09T20:03:22Z</time>
        <name>WPT.542</name>
      </trkpt>
      <trkpt lat="35.505410000" lon="-106.835646000">
        <ele>1793.000</ele>
        <time>2017-03-09T20:03:47Z</time>
        <name>WPT.543</name>
      </trkpt>
      <trkpt lat="35.505408000" lon="-106.835700000">
        <ele>1794.000</ele>
        <time>2017-03-09T20:03:52Z</time>
        <name>WPT.544</name>
      </trkpt>
      <trkpt lat="35.505412000" lon="-106.835751000">
        <ele>1795.000</ele>
        <time>2017-03-09T20:03:56Z</time>
        <name>WPT.545</name>
      </trkpt>
      <trkpt lat="35.505423000" lon="-106.835804000">
        <ele>1796.000</ele>
        <time>2017-03-09T20:04:00Z</time>
        <name>WPT.546</name>
      </trkpt>
      <trkpt lat="35.505441000" lon="-106.835851000">
        <ele>1797.000</ele>
        <time>2017-03-09T20:04:04Z</time>
        <name>WPT.547</name>
      </trkpt>
      <trkpt lat="35.505450000" lon="-106.835900000">
        <ele>1798.000</ele>
        <time>2017-03-09T20:04:08Z</time>
        <name>WPT.548</name>
      </trkpt>
      <trkpt lat="35.505460000" lon="-106.835950000">
        <ele>1798.000</ele>
        <time>2017-03-09T20:04:12Z</time>
        <name>WPT.549</name>
      </trkpt>
      <trkpt lat="35.505462000" lon="-106.835999000">
        <ele>1799.000</ele>
        <time>2017-03-09T20:04:16Z</time>
        <name>WPT.550</name>
      </trkpt>
      <trkpt lat="35.505455000" lon="-106.836049000">
        <ele>1799.000</ele>
        <time>2017-03-09T20:04:20Z</time>
        <name>WPT.551</name>
      </trkpt>
      <trkpt lat="35.505443000" lon="-106.836094000">
        <ele>1798.000</ele>
        <time>2017-03-09T20:04:23Z</time>
        <name>WPT.552</name>
      </trkpt>
      <trkpt lat="35.505437000" lon="-106.836147000">
        <ele>1798.000</ele>
        <time>2017-03-09T20:04:27Z</time>
        <name>WPT.553</name>
      </trkpt>
      <trkpt lat="35.505444000" lon="-106.836195000">
        <ele>1796.000</ele>
        <time>2017-03-09T20:04:31Z</time>
        <name>WPT.554</name>
      </trkpt>
      <trkpt lat="35.505456000" lon="-106.836255000">
        <ele>1796.000</ele>
        <time>2017-03-09T20:04:35Z</time>
        <name>WPT.555</name>
      </trkpt>
      <trkpt lat="35.505476000" lon="-106.836302000">
        <ele>1796.000</ele>
        <time>2017-03-09T20:04:38Z</time>
        <name>WPT.556</name>
      </trkpt>
      <trkpt lat="35.505444000" lon="-106.836329000">
        <ele>1793.000</ele>
        <time>2017-03-09T20:04:42Z</time>
        <name>WPT.557</name>
      </trkpt>
      <trkpt lat="35.505411000" lon="-106.836351000">
        <ele>1796.000</ele>
        <time>2017-03-09T20:04:47Z</time>
        <name>WPT.558</name>
      </trkpt>
      <trkpt lat="35.505451000" lon="-106.836359000">
        <ele>1796.000</ele>
        <time>2017-03-09T20:04:54Z</time>
        <name>WPT.559</name>
      </trkpt>
      <trkpt lat="35.505454000" lon="-106.836403000">
        <ele>1797.000</ele>
        <time>2017-03-09T20:04:59Z</time>
        <name>WPT.560</name>
      </trkpt>
      <trkpt lat="35.505455000" lon="-106.836450000">
        <ele>1798.000</ele>
        <time>2017-03-09T20:05:03Z</time>
        <name>WPT.561</name>
      </trkpt>
      <trkpt lat="35.505452000" lon="-106.836496000">
        <ele>1799.000</ele>
        <time>2017-03-09T20:05:07Z</time>
        <name>WPT.562</name>
      </trkpt>
      <trkpt lat="35.505444000" lon="-106.836558000">
        <ele>1798.000</ele>
        <time>2017-03-09T20:05:12Z</time>
        <name>WPT.563</name>
      </trkpt>
      <trkpt lat="35.505415000" lon="-106.836586000">
        <ele>1799.000</ele>
        <time>2017-03-09T20:05:15Z</time>
        <name>WPT.564</name>
      </trkpt>
      <trkpt lat="35.505391000" lon="-106.836624000">
        <ele>1797.000</ele>
        <time>2017-03-09T20:05:19Z</time>
        <name>WPT.565</name>
      </trkpt>
      <trkpt lat="35.505373000" lon="-106.836667000">
        <ele>1798.000</ele>
        <time>2017-03-09T20:05:23Z</time>
        <name>WPT.566</name>
      </trkpt>
      <trkpt lat="35.505361000" lon="-106.836714000">
        <ele>1796.000</ele>
        <time>2017-03-09T20:05:27Z</time>
        <name>WPT.567</name>
      </trkpt>
      <trkpt lat="35.505328000" lon="-106.836730000">
        <ele>1794.000</ele>
        <time>2017-03-09T20:05:32Z</time>
        <name>WPT.568</name>
      </trkpt>
      <trkpt lat="35.505279000" lon="-106.836733000">
        <ele>1793.000</ele>
        <time>2017-03-09T20:05:37Z</time>
        <name>WPT.569</name>
      </trkpt>
      <trkpt lat="35.505242000" lon="-106.836735000">
        <ele>1794.000</ele>
        <time>2017-03-09T20:05:42Z</time>
        <name>WPT.570</name>
      </trkpt>
      <trkpt lat="35.505217000" lon="-106.836700000">
        <ele>1795.000</ele>
        <time>2017-03-09T20:41:58Z</time>
        <name>WPT.571</name>
      </trkpt>
      <trkpt lat="35.505207000" lon="-106.836657000">
        <ele>1795.000</ele>
        <time>2017-03-09T20:42:04Z</time>
        <name>WPT.572</name>
      </trkpt>
      <trkpt lat="35.505220000" lon="-106.836607000">
        <ele>1795.000</ele>
        <time>2017-03-09T20:42:28Z</time>
        <name>WPT.573</name>
      </trkpt>
      <trkpt lat="35.505205000" lon="-106.836565000">
        <ele>1796.000</ele>
        <time>2017-03-09T20:43:38Z</time>
        <name>WPT.574</name>
      </trkpt>
      <trkpt lat="35.505233000" lon="-106.836600000">
        <ele>1795.000</ele>
        <time>2017-03-09T20:43:44Z</time>
        <name>WPT.575</name>
      </trkpt>
      <trkpt lat="35.505238000" lon="-106.836648000">
        <ele>1795.000</ele>
        <time>2017-03-09T20:43:49Z</time>
        <name>WPT.576</name>
      </trkpt>
      <trkpt lat="35.505233000" lon="-106.836699000">
        <ele>1795.000</ele>
        <time>2017-03-09T20:43:56Z</time>
        <name>WPT.577</name>
      </trkpt>
      <trkpt lat="35.505270000" lon="-106.836696000">
        <ele>1796.000</ele>
        <time>2017-03-09T20:49:01Z</time>
        <name>WPT.578</name>
      </trkpt>
      <trkpt lat="35.505305000" lon="-106.836724000">
        <ele>1796.000</ele>
        <time>2017-03-09T20:51:24Z</time>
        <name>WPT.579</name>
      </trkpt>
      <trkpt lat="35.505342000" lon="-106.836758000">
        <ele>1797.000</ele>
        <time>2017-03-09T20:51:50Z</time>
        <name>WPT.580</name>
      </trkpt>
      <trkpt lat="35.505319000" lon="-106.836797000">
        <ele>1797.000</ele>
        <time>2017-03-09T20:51:55Z</time>
        <name>WPT.581</name>
      </trkpt>
      <trkpt lat="35.505294000" lon="-106.836831000">
        <ele>1798.000</ele>
        <time>2017-03-09T20:51:59Z</time>
        <name>WPT.582</name>
      </trkpt>
      <trkpt lat="35.505273000" lon="-106.836875000">
        <ele>1799.000</ele>
        <time>2017-03-09T20:52:03Z</time>
        <name>WPT.583</name>
      </trkpt>
      <trkpt lat="35.505259000" lon="-106.836922000">
        <ele>1799.000</ele>
        <time>2017-03-09T20:52:32Z</time>
        <name>WPT.584</name>
      </trkpt>
      <trkpt lat="35.505229000" lon="-106.836955000">
        <ele>1799.000</ele>
        <time>2017-03-09T20:52:36Z</time>
        <name>WPT.585</name>
      </trkpt>
      <trkpt lat="35.505208000" lon="-106.836994000">
        <ele>1798.000</ele>
        <time>2017-03-09T20:52:47Z</time>
        <name>WPT.586</name>
      </trkpt>
      <trkpt lat="35.505170000" lon="-106.837022000">
        <ele>1799.000</ele>
        <time>2017-03-09T20:52:57Z</time>
        <name>WPT.587</name>
      </trkpt>
      <trkpt lat="35.505143000" lon="-106.837055000">
        <ele>1798.000</ele>
        <time>2017-03-09T20:53:00Z</time>
        <name>WPT.588</name>
      </trkpt>
      <trkpt lat="35.505115000" lon="-106.837088000">
        <ele>1798.000</ele>
        <time>2017-03-09T20:53:04Z</time>
        <name>WPT.589</name>
      </trkpt>
      <trkpt lat="35.505092000" lon="-106.837123000">
        <ele>1799.000</ele>
        <time>2017-03-09T20:53:08Z</time>
        <name>WPT.590</name>
      </trkpt>
      <trkpt lat="35.505075000" lon="-106.837173000">
        <ele>1798.000</ele>
        <time>2017-03-09T20:53:12Z</time>
        <name>WPT.591</name>
      </trkpt>
      <trkpt lat="35.505054000" lon="-106.837210000">
        <ele>1798.000</ele>
        <time>2017-03-09T20:53:15Z</time>
        <name>WPT.592</name>
      </trkpt>
      <trkpt lat="35.505027000" lon="-106.837241000">
        <ele>1799.000</ele>
        <time>2017-03-09T20:53:19Z</time>
        <name>WPT.593</name>
      </trkpt>
      <trkpt lat="35.504983000" lon="-106.837276000">
        <ele>1797.000</ele>
        <time>2017-03-09T20:53:37Z</time>
        <name>WPT.594</name>
      </trkpt>
      <trkpt lat="35.504954000" lon="-106.837315000">
        <ele>1797.000</ele>
        <time>2017-03-09T20:53:41Z</time>
        <name>WPT.595</name>
      </trkpt>
      <trkpt lat="35.504940000" lon="-106.837367000">
        <ele>1797.000</ele>
        <time>2017-03-09T20:53:46Z</time>
        <name>WPT.596</name>
      </trkpt>
      <trkpt lat="35.504927000" lon="-106.837414000">
        <ele>1796.000</ele>
        <time>2017-03-09T20:53:50Z</time>
        <name>WPT.597</name>
      </trkpt>
      <trkpt lat="35.504911000" lon="-106.837457000">
        <ele>1796.000</ele>
        <time>2017-03-09T20:53:54Z</time>
        <name>WPT.598</name>
      </trkpt>
      <trkpt lat="35.504883000" lon="-106.837499000">
        <ele>1796.000</ele>
        <time>2017-03-09T20:53:58Z</time>
        <name>WPT.599</name>
      </trkpt>
      <trkpt lat="35.504861000" lon="-106.837544000">
        <ele>1797.000</ele>
        <time>2017-03-09T20:54:02Z</time>
        <name>WPT.600</name>
      </trkpt>
      <trkpt lat="35.504844000" lon="-106.837590000">
        <ele>1795.000</ele>
        <time>2017-03-09T20:54:06Z</time>
        <name>WPT.601</name>
      </trkpt>
      <trkpt lat="35.504816000" lon="-106.837629000">
        <ele>1795.000</ele>
        <time>2017-03-09T20:54:10Z</time>
        <name>WPT.602</name>
      </trkpt>
      <trkpt lat="35.504780000" lon="-106.837666000">
        <ele>1795.000</ele>
        <time>2017-03-09T20:54:14Z</time>
        <name>WPT.603</name>
      </trkpt>
      <trkpt lat="35.504759000" lon="-106.837716000">
        <ele>1796.000</ele>
        <time>2017-03-09T20:54:19Z</time>
        <name>WPT.604</name>
      </trkpt>
      <trkpt lat="35.504733000" lon="-106.837748000">
        <ele>1797.000</ele>
        <time>2017-03-09T20:54:23Z</time>
        <name>WPT.605</name>
      </trkpt>
      <trkpt lat="35.504699000" lon="-106.837777000">
        <ele>1797.000</ele>
        <time>2017-03-09T20:54:28Z</time>
        <name>WPT.606</name>
      </trkpt>
      <trkpt lat="35.504660000" lon="-106.837795000">
        <ele>1797.000</ele>
        <time>2017-03-09T20:54:32Z</time>
        <name>WPT.607</name>
      </trkpt>
      <trkpt lat="35.504627000" lon="-106.837815000">
        <ele>1797.000</ele>
        <time>2017-03-09T20:54:36Z</time>
        <name>WPT.608</name>
      </trkpt>
      <trkpt lat="35.504594000" lon="-106.837835000">
        <ele>1797.000</ele>
        <time>2017-03-09T20:54:40Z</time>
        <name>WPT.609</name>
      </trkpt>
      <trkpt lat="35.504550000" lon="-106.837854000">
        <ele>1797.000</ele>
        <time>2017-03-09T20:54:44Z</time>
        <name>WPT.610</name>
      </trkpt>
      <trkpt lat="35.504512000" lon="-106.837873000">
        <ele>1797.000</ele>
        <time>2017-03-09T20:54:48Z</time>
        <name>WPT.611</name>
      </trkpt>
      <trkpt lat="35.504483000" lon="-106.837900000">
        <ele>1797.000</ele>
        <time>2017-03-09T20:54:52Z</time>
        <name>WPT.612</name>
      </trkpt>
      <trkpt lat="35.504444000" lon="-106.837924000">
        <ele>1796.000</ele>
        <time>2017-03-09T20:54:56Z</time>
        <name>WPT.613</name>
      </trkpt>
      <trkpt lat="35.504409000" lon="-106.837955000">
        <ele>1797.000</ele>
        <time>2017-03-09T20:55:00Z</time>
        <name>WPT.614</name>
      </trkpt>
      <trkpt lat="35.504376000" lon="-106.837986000">
        <ele>1796.000</ele>
        <time>2017-03-09T20:55:04Z</time>
        <name>WPT.615</name>
      </trkpt>
      <trkpt lat="35.504345000" lon="-106.838021000">
        <ele>1797.000</ele>
        <time>2017-03-09T20:55:08Z</time>
        <name>WPT.616</name>
      </trkpt>
      <trkpt lat="35.504307000" lon="-106.838053000">
        <ele>1797.000</ele>
        <time>2017-03-09T20:55:12Z</time>
        <name>WPT.617</name>
      </trkpt>
      <trkpt lat="35.504272000" lon="-106.838080000">
        <ele>1797.000</ele>
        <time>2017-03-09T20:55:16Z</time>
        <name>WPT.618</name>
      </trkpt>
      <trkpt lat="35.504245000" lon="-106.838116000">
        <ele>1797.000</ele>
        <time>2017-03-09T20:55:20Z</time>
        <name>WPT.619</name>
      </trkpt>
      <trkpt lat="35.504203000" lon="-106.838142000">
        <ele>1797.000</ele>
        <time>2017-03-09T20:55:25Z</time>
        <name>WPT.620</name>
      </trkpt>
      <trkpt lat="35.504170000" lon="-106.838169000">
        <ele>1798.000</ele>
        <time>2017-03-09T20:55:30Z</time>
        <name>WPT.621</name>
      </trkpt>
      <trkpt lat="35.504135000" lon="-106.838197000">
        <ele>1798.000</ele>
        <time>2017-03-09T20:55:34Z</time>
        <name>WPT.622</name>
      </trkpt>
      <trkpt lat="35.504098000" lon="-106.838213000">
        <ele>1798.000</ele>
        <time>2017-03-09T20:55:39Z</time>
        <name>WPT.623</name>
      </trkpt>
      <trkpt lat="35.504056000" lon="-106.838231000">
        <ele>1797.000</ele>
        <time>2017-03-09T20:55:43Z</time>
        <name>WPT.624</name>
      </trkpt>
      <trkpt lat="35.504010000" lon="-106.838246000">
        <ele>1797.000</ele>
        <time>2017-03-09T20:55:47Z</time>
        <name>WPT.625</name>
      </trkpt>
      <trkpt lat="35.503977000" lon="-106.838263000">
        <ele>1798.000</ele>
        <time>2017-03-09T20:55:50Z</time>
        <name>WPT.626</name>
      </trkpt>
      <trkpt lat="35.503936000" lon="-106.838276000">
        <ele>1799.000</ele>
        <time>2017-03-09T20:55:54Z</time>
        <name>WPT.627</name>
      </trkpt>
      <trkpt lat="35.503895000" lon="-106.838296000">
        <ele>1798.000</ele>
        <time>2017-03-09T20:55:58Z</time>
        <name>WPT.628</name>
      </trkpt>
      <trkpt lat="35.503849000" lon="-106.838313000">
        <ele>1799.000</ele>
        <time>2017-03-09T20:56:02Z</time>
        <name>WPT.629</name>
      </trkpt>
      <trkpt lat="35.503805000" lon="-106.838329000">
        <ele>1799.000</ele>
        <time>2017-03-09T20:56:07Z</time>
        <name>WPT.630</name>
      </trkpt>
      <trkpt lat="35.503768000" lon="-106.838349000">
        <ele>1799.000</ele>
        <time>2017-03-09T20:56:11Z</time>
        <name>WPT.631</name>
      </trkpt>
      <trkpt lat="35.503729000" lon="-106.838372000">
        <ele>1799.000</ele>
        <time>2017-03-09T20:56:15Z</time>
        <name>WPT.632</name>
      </trkpt>
      <trkpt lat="35.503685000" lon="-106.838397000">
        <ele>1800.000</ele>
        <time>2017-03-09T20:56:19Z</time>
        <name>WPT.633</name>
      </trkpt>
      <trkpt lat="35.503648000" lon="-106.838409000">
        <ele>1801.000</ele>
        <time>2017-03-09T20:56:23Z</time>
        <name>WPT.634</name>
      </trkpt>
      <trkpt lat="35.503615000" lon="-106.838427000">
        <ele>1800.000</ele>
        <time>2017-03-09T20:56:26Z</time>
        <name>WPT.635</name>
      </trkpt>
      <trkpt lat="35.503578000" lon="-106.838440000">
        <ele>1800.000</ele>
        <time>2017-03-09T20:56:30Z</time>
        <name>WPT.636</name>
      </trkpt>
      <trkpt lat="35.503539000" lon="-106.838456000">
        <ele>1800.000</ele>
        <time>2017-03-09T20:56:34Z</time>
        <name>WPT.637</name>
      </trkpt>
      <trkpt lat="35.503504000" lon="-106.838471000">
        <ele>1800.000</ele>
        <time>2017-03-09T20:56:37Z</time>
        <name>WPT.638</name>
      </trkpt>
      <trkpt lat="35.503466000" lon="-106.838485000">
        <ele>1798.000</ele>
        <time>2017-03-09T20:56:41Z</time>
        <name>WPT.639</name>
      </trkpt>
      <trkpt lat="35.503428000" lon="-106.838506000">
        <ele>1798.000</ele>
        <time>2017-03-09T20:56:45Z</time>
        <name>WPT.640</name>
      </trkpt>
      <trkpt lat="35.503390000" lon="-106.838521000">
        <ele>1798.000</ele>
        <time>2017-03-09T20:56:49Z</time>
        <name>WPT.641</name>
      </trkpt>
      <trkpt lat="35.503346000" lon="-106.838543000">
        <ele>1799.000</ele>
        <time>2017-03-09T20:56:53Z</time>
        <name>WPT.642</name>
      </trkpt>
      <trkpt lat="35.503302000" lon="-106.838551000">
        <ele>1799.000</ele>
        <time>2017-03-09T20:56:57Z</time>
        <name>WPT.643</name>
      </trkpt>
      <trkpt lat="35.503265000" lon="-106.838573000">
        <ele>1798.000</ele>
        <time>2017-03-09T20:57:01Z</time>
        <name>WPT.644</name>
      </trkpt>
      <trkpt lat="35.503230000" lon="-106.838595000">
        <ele>1798.000</ele>
        <time>2017-03-09T20:57:04Z</time>
        <name>WPT.645</name>
      </trkpt>
      <trkpt lat="35.503196000" lon="-106.838609000">
        <ele>1798.000</ele>
        <time>2017-03-09T20:57:07Z</time>
        <name>WPT.646</name>
      </trkpt>
      <trkpt lat="35.503159000" lon="-106.838626000">
        <ele>1798.000</ele>
        <time>2017-03-09T20:57:11Z</time>
        <name>WPT.647</name>
      </trkpt>
      <trkpt lat="35.503120000" lon="-106.838643000">
        <ele>1798.000</ele>
        <time>2017-03-09T20:57:15Z</time>
        <name>WPT.648</name>
      </trkpt>
      <trkpt lat="35.503076000" lon="-106.838655000">
        <ele>1798.000</ele>
        <time>2017-03-09T20:57:19Z</time>
        <name>WPT.649</name>
      </trkpt>
      <trkpt lat="35.503034000" lon="-106.838675000">
        <ele>1799.000</ele>
        <time>2017-03-09T20:57:23Z</time>
        <name>WPT.650</name>
      </trkpt>
      <trkpt lat="35.502998000" lon="-106.838689000">
        <ele>1799.000</ele>
        <time>2017-03-09T20:57:26Z</time>
        <name>WPT.651</name>
      </trkpt>
      <trkpt lat="35.502958000" lon="-106.838699000">
        <ele>1799.000</ele>
        <time>2017-03-09T20:57:30Z</time>
        <name>WPT.652</name>
      </trkpt>
      <trkpt lat="35.502911000" lon="-106.838706000">
        <ele>1799.000</ele>
        <time>2017-03-09T20:57:34Z</time>
        <name>WPT.653</name>
      </trkpt>
      <trkpt lat="35.502868000" lon="-106.838715000">
        <ele>1799.000</ele>
        <time>2017-03-09T20:57:38Z</time>
        <name>WPT.654</name>
      </trkpt>
      <trkpt lat="35.502833000" lon="-106.838726000">
        <ele>1799.000</ele>
        <time>2017-03-09T20:57:41Z</time>
        <name>WPT.655</name>
      </trkpt>
      <trkpt lat="35.502795000" lon="-106.838738000">
        <ele>1798.000</ele>
        <time>2017-03-09T20:57:46Z</time>
        <name>WPT.656</name>
      </trkpt>
      <trkpt lat="35.502760000" lon="-106.838771000">
        <ele>1798.000</ele>
        <time>2017-03-09T20:58:31Z</time>
        <name>WPT.657</name>
      </trkpt>
      <trkpt lat="35.502739000" lon="-106.838814000">
        <ele>1800.000</ele>
        <time>2017-03-09T20:58:37Z</time>
        <name>WPT.658</name>
      </trkpt>
      <trkpt lat="35.502730000" lon="-106.838862000">
        <ele>1800.000</ele>
        <time>2017-03-09T20:58:41Z</time>
        <name>WPT.659</name>
      </trkpt>
      <trkpt lat="35.502727000" lon="-106.838908000">
        <ele>1801.000</ele>
        <time>2017-03-09T20:58:44Z</time>
        <name>WPT.660</name>
      </trkpt>
      <trkpt lat="35.502724000" lon="-106.838962000">
        <ele>1800.000</ele>
        <time>2017-03-09T20:58:50Z</time>
        <name>WPT.661</name>
      </trkpt>
      <trkpt lat="35.502739000" lon="-106.839014000">
        <ele>1800.000</ele>
        <time>2017-03-09T20:58:54Z</time>
        <name>WPT.662</name>
      </trkpt>
      <trkpt lat="35.502734000" lon="-106.839059000">
        <ele>1800.000</ele>
        <time>2017-03-09T20:58:59Z</time>
        <name>WPT.663</name>
      </trkpt>
      <trkpt lat="35.502732000" lon="-106.839108000">
        <ele>1799.000</ele>
        <time>2017-03-09T20:59:15Z</time>
        <name>WPT.664</name>
      </trkpt>
      <trkpt lat="35.502745000" lon="-106.839155000">
        <ele>1799.000</ele>
        <time>2017-03-09T20:59:18Z</time>
        <name>WPT.665</name>
      </trkpt>
      <trkpt lat="35.502746000" lon="-106.839202000">
        <ele>1799.000</ele>
        <time>2017-03-09T20:59:21Z</time>
        <name>WPT.666</name>
      </trkpt>
      <trkpt lat="35.502749000" lon="-106.839258000">
        <ele>1800.000</ele>
        <time>2017-03-09T20:59:25Z</time>
        <name>WPT.667</name>
      </trkpt>
      <trkpt lat="35.502747000" lon="-106.839315000">
        <ele>1801.000</ele>
        <time>2017-03-09T20:59:29Z</time>
        <name>WPT.668</name>
      </trkpt>
      <trkpt lat="35.502748000" lon="-106.839375000">
        <ele>1801.000</ele>
        <time>2017-03-09T20:59:33Z</time>
        <name>WPT.669</name>
      </trkpt>
      <trkpt lat="35.502749000" lon="-106.839424000">
        <ele>1801.000</ele>
        <time>2017-03-09T20:59:36Z</time>
        <name>WPT.670</name>
      </trkpt>
      <trkpt lat="35.502749000" lon="-106.839482000">
        <ele>1801.000</ele>
        <time>2017-03-09T20:59:40Z</time>
        <name>WPT.671</name>
      </trkpt>
      <trkpt lat="35.502746000" lon="-106.839532000">
        <ele>1804.000</ele>
        <time>2017-03-09T20:59:44Z</time>
        <name>WPT.672</name>
      </trkpt>
      <trkpt lat="35.502741000" lon="-106.839577000">
        <ele>1804.000</ele>
        <time>2017-03-09T20:59:48Z</time>
        <name>WPT.673</name>
      </trkpt>
      <trkpt lat="35.502728000" lon="-106.839625000">
        <ele>1803.000</ele>
        <time>2017-03-09T20:59:52Z</time>
        <name>WPT.674</name>
      </trkpt>
      <trkpt lat="35.502721000" lon="-106.839669000">
        <ele>1803.000</ele>
        <time>2017-03-09T20:59:56Z</time>
        <name>WPT.675</name>
      </trkpt>
      <trkpt lat="35.502713000" lon="-106.839714000">
        <ele>1802.000</ele>
        <time>2017-03-09T21:00:05Z</time>
        <name>WPT.676</name>
      </trkpt>
      <trkpt lat="35.502704000" lon="-106.839761000">
        <ele>1801.000</ele>
        <time>2017-03-09T21:00:20Z</time>
        <name>WPT.677</name>
      </trkpt>
      <trkpt lat="35.502694000" lon="-106.839814000">
        <ele>1802.000</ele>
        <time>2017-03-09T21:00:24Z</time>
        <name>WPT.678</name>
      </trkpt>
      <trkpt lat="35.502675000" lon="-106.839862000">
        <ele>1800.000</ele>
        <time>2017-03-09T21:00:28Z</time>
        <name>WPT.679</name>
      </trkpt>
      <trkpt lat="35.502643000" lon="-106.839890000">
        <ele>1803.000</ele>
        <time>2017-03-09T21:00:31Z</time>
        <name>WPT.680</name>
      </trkpt>
      <trkpt lat="35.502629000" lon="-106.839939000">
        <ele>1801.000</ele>
        <time>2017-03-09T21:00:35Z</time>
        <name>WPT.681</name>
      </trkpt>
      <trkpt lat="35.502620000" lon="-106.839999000">
        <ele>1799.000</ele>
        <time>2017-03-09T21:00:39Z</time>
        <name>WPT.682</name>
      </trkpt>
      <trkpt lat="35.502602000" lon="-106.840047000">
        <ele>1800.000</ele>
        <time>2017-03-09T21:00:43Z</time>
        <name>WPT.683</name>
      </trkpt>
      <trkpt lat="35.502591000" lon="-106.840104000">
        <ele>1798.000</ele>
        <time>2017-03-09T21:00:47Z</time>
        <name>WPT.684</name>
      </trkpt>
      <trkpt lat="35.502576000" lon="-106.840150000">
        <ele>1799.000</ele>
        <time>2017-03-09T21:00:51Z</time>
        <name>WPT.685</name>
      </trkpt>
      <trkpt lat="35.502582000" lon="-106.840197000">
        <ele>1797.000</ele>
        <time>2017-03-09T21:00:56Z</time>
        <name>WPT.686</name>
      </trkpt>
      <trkpt lat="35.502561000" lon="-106.840235000">
        <ele>1797.000</ele>
        <time>2017-03-09T21:01:00Z</time>
        <name>WPT.687</name>
      </trkpt>
      <trkpt lat="35.502547000" lon="-106.840283000">
        <ele>1797.000</ele>
        <time>2017-03-09T21:01:04Z</time>
        <name>WPT.688</name>
      </trkpt>
      <trkpt lat="35.502535000" lon="-106.840325000">
        <ele>1797.000</ele>
        <time>2017-03-09T21:01:08Z</time>
        <name>WPT.689</name>
      </trkpt>
      <trkpt lat="35.502518000" lon="-106.840373000">
        <ele>1796.000</ele>
        <time>2017-03-09T21:01:12Z</time>
        <name>WPT.690</name>
      </trkpt>
      <trkpt lat="35.502500000" lon="-106.840419000">
        <ele>1796.000</ele>
        <time>2017-03-09T21:01:21Z</time>
        <name>WPT.691</name>
      </trkpt>
      <trkpt lat="35.502487000" lon="-106.840464000">
        <ele>1796.000</ele>
        <time>2017-03-09T21:01:28Z</time>
        <name>WPT.692</name>
      </trkpt>
      <trkpt lat="35.502494000" lon="-106.840511000">
        <ele>1794.000</ele>
        <time>2017-03-09T21:01:34Z</time>
        <name>WPT.693</name>
      </trkpt>
      <trkpt lat="35.502493000" lon="-106.840557000">
        <ele>1793.000</ele>
        <time>2017-03-09T21:01:39Z</time>
        <name>WPT.694</name>
      </trkpt>
      <trkpt lat="35.502510000" lon="-106.840605000">
        <ele>1792.000</ele>
        <time>2017-03-09T21:01:45Z</time>
        <name>WPT.695</name>
      </trkpt>
      <trkpt lat="35.502545000" lon="-106.840635000">
        <ele>1793.000</ele>
        <time>2017-03-09T21:03:36Z</time>
        <name>WPT.696</name>
      </trkpt>
      <trkpt lat="35.502537000" lon="-106.840687000">
        <ele>1794.000</ele>
        <time>2017-03-09T21:04:19Z</time>
        <name>WPT.697</name>
      </trkpt>
      <trkpt lat="35.502528000" lon="-106.840734000">
        <ele>1792.000</ele>
        <time>2017-03-09T21:04:26Z</time>
        <name>WPT.698</name>
      </trkpt>
      <trkpt lat="35.502510000" lon="-106.840786000">
        <ele>1792.000</ele>
        <time>2017-03-09T21:04:32Z</time>
        <name>WPT.699</name>
      </trkpt>
      <trkpt lat="35.502494000" lon="-106.840830000">
        <ele>1791.000</ele>
        <time>2017-03-09T21:04:38Z</time>
        <name>WPT.700</name>
      </trkpt>
      <trkpt lat="35.502474000" lon="-106.840873000">
        <ele>1793.000</ele>
        <time>2017-03-09T21:04:46Z</time>
        <name>WPT.701</name>
      </trkpt>
      <trkpt lat="35.502450000" lon="-106.840911000">
        <ele>1790.000</ele>
        <time>2017-03-09T21:05:15Z</time>
        <name>WPT.702</name>
      </trkpt>
      <trkpt lat="35.502423000" lon="-106.840952000">
        <ele>1790.000</ele>
        <time>2017-03-09T21:05:19Z</time>
        <name>WPT.703</name>
      </trkpt>
      <trkpt lat="35.502394000" lon="-106.840997000">
        <ele>1790.000</ele>
        <time>2017-03-09T21:05:23Z</time>
        <name>WPT.704</name>
      </trkpt>
      <trkpt lat="35.502378000" lon="-106.841039000">
        <ele>1789.000</ele>
        <time>2017-03-09T21:05:27Z</time>
        <name>WPT.705</name>
      </trkpt>
      <trkpt lat="35.502348000" lon="-106.841013000">
        <ele>1790.000</ele>
        <time>2017-03-09T21:05:43Z</time>
        <name>WPT.706</name>
      </trkpt>
      <trkpt lat="35.502307000" lon="-106.841003000">
        <ele>1790.000</ele>
        <time>2017-03-09T21:05:47Z</time>
        <name>WPT.707</name>
      </trkpt>
      <trkpt lat="35.502285000" lon="-106.841046000">
        <ele>1788.000</ele>
        <time>2017-03-09T21:05:54Z</time>
        <name>WPT.708</name>
      </trkpt>
      <trkpt lat="35.502284000" lon="-106.841098000">
        <ele>1787.000</ele>
        <time>2017-03-09T21:05:59Z</time>
        <name>WPT.709</name>
      </trkpt>
      <trkpt lat="35.502287000" lon="-106.841154000">
        <ele>1786.000</ele>
        <time>2017-03-09T21:06:03Z</time>
        <name>WPT.710</name>
      </trkpt>
      <trkpt lat="35.502286000" lon="-106.841204000">
        <ele>1785.000</ele>
        <time>2017-03-09T21:06:07Z</time>
        <name>WPT.711</name>
      </trkpt>
      <trkpt lat="35.502253000" lon="-106.841244000">
        <ele>1784.000</ele>
        <time>2017-03-09T21:06:11Z</time>
        <name>WPT.712</name>
      </trkpt>
      <trkpt lat="35.502218000" lon="-106.841256000">
        <ele>1784.000</ele>
        <time>2017-03-09T21:06:16Z</time>
        <name>WPT.713</name>
      </trkpt>
      <trkpt lat="35.502183000" lon="-106.841234000">
        <ele>1785.000</ele>
        <time>2017-03-09T21:06:20Z</time>
        <name>WPT.714</name>
      </trkpt>
      <trkpt lat="35.502155000" lon="-106.841202000">
        <ele>1788.000</ele>
        <time>2017-03-09T21:06:45Z</time>
        <name>WPT.715</name>
      </trkpt>
      <trkpt lat="35.502135000" lon="-106.841158000">
        <ele>1789.000</ele>
        <time>2017-03-09T21:06:50Z</time>
        <name>WPT.716</name>
      </trkpt>
      <trkpt lat="35.502119000" lon="-106.841106000">
        <ele>1789.000</ele>
        <time>2017-03-09T21:06:54Z</time>
        <name>WPT.717</name>
      </trkpt>
      <trkpt lat="35.502104000" lon="-106.841056000">
        <ele>1789.000</ele>
        <time>2017-03-09T21:06:58Z</time>
        <name>WPT.718</name>
      </trkpt>
      <trkpt lat="35.502078000" lon="-106.841021000">
        <ele>1790.000</ele>
        <time>2017-03-09T21:07:02Z</time>
        <name>WPT.719</name>
      </trkpt>
      <trkpt lat="35.502052000" lon="-106.840971000">
        <ele>1790.000</ele>
        <time>2017-03-09T21:07:06Z</time>
        <name>WPT.720</name>
      </trkpt>
      <trkpt lat="35.502021000" lon="-106.840931000">
        <ele>1789.000</ele>
        <time>2017-03-09T21:07:10Z</time>
        <name>WPT.721</name>
      </trkpt>
      <trkpt lat="35.501991000" lon="-106.840906000">
        <ele>1789.000</ele>
        <time>2017-03-09T21:07:16Z</time>
        <name>WPT.722</name>
      </trkpt>
      <trkpt lat="35.501965000" lon="-106.840874000">
        <ele>1789.000</ele>
        <time>2017-03-09T21:07:20Z</time>
        <name>WPT.723</name>
      </trkpt>
      <trkpt lat="35.501927000" lon="-106.840859000">
        <ele>1788.000</ele>
        <time>2017-03-09T21:07:24Z</time>
        <name>WPT.724</name>
      </trkpt>
      <trkpt lat="35.501884000" lon="-106.840841000">
        <ele>1788.000</ele>
        <time>2017-03-09T21:07:28Z</time>
        <name>WPT.725</name>
      </trkpt>
      <trkpt lat="35.501845000" lon="-106.840831000">
        <ele>1788.000</ele>
        <time>2017-03-09T21:07:31Z</time>
        <name>WPT.726</name>
      </trkpt>
      <trkpt lat="35.501809000" lon="-106.840827000">
        <ele>1788.000</ele>
        <time>2017-03-09T21:07:36Z</time>
        <name>WPT.727</name>
      </trkpt>
      <trkpt lat="35.501770000" lon="-106.840819000">
        <ele>1788.000</ele>
        <time>2017-03-09T21:07:40Z</time>
        <name>WPT.728</name>
      </trkpt>
      <trkpt lat="35.501735000" lon="-106.840806000">
        <ele>1787.000</ele>
        <time>2017-03-09T21:07:44Z</time>
        <name>WPT.729</name>
      </trkpt>
      <trkpt lat="35.501698000" lon="-106.840783000">
        <ele>1787.000</ele>
        <time>2017-03-09T21:07:48Z</time>
        <name>WPT.730</name>
      </trkpt>
      <trkpt lat="35.501666000" lon="-106.840755000">
        <ele>1786.000</ele>
        <time>2017-03-09T21:07:53Z</time>
        <name>WPT.731</name>
      </trkpt>
      <trkpt lat="35.501634000" lon="-106.840730000">
        <ele>1785.000</ele>
        <time>2017-03-09T21:07:58Z</time>
        <name>WPT.732</name>
      </trkpt>
      <trkpt lat="35.501595000" lon="-106.840711000">
        <ele>1785.000</ele>
        <time>2017-03-09T21:08:03Z</time>
        <name>WPT.733</name>
      </trkpt>
      <trkpt lat="35.501549000" lon="-106.840703000">
        <ele>1785.000</ele>
        <time>2017-03-09T21:08:07Z</time>
        <name>WPT.734</name>
      </trkpt>
      <trkpt lat="35.501505000" lon="-106.840702000">
        <ele>1785.000</ele>
        <time>2017-03-09T21:08:12Z</time>
        <name>WPT.735</name>
      </trkpt>
      <trkpt lat="35.501469000" lon="-106.840695000">
        <ele>1784.000</ele>
        <time>2017-03-09T21:08:23Z</time>
        <name>WPT.736</name>
      </trkpt>
      <trkpt lat="35.501430000" lon="-106.840704000">
        <ele>1785.000</ele>
        <time>2017-03-09T21:08:35Z</time>
        <name>WPT.737</name>
      </trkpt>
      <trkpt lat="35.501395000" lon="-106.840714000">
        <ele>1785.000</ele>
        <time>2017-03-09T21:08:39Z</time>
        <name>WPT.738</name>
      </trkpt>
      <trkpt lat="35.501359000" lon="-106.840721000">
        <ele>1785.000</ele>
        <time>2017-03-09T21:08:50Z</time>
        <name>WPT.739</name>
      </trkpt>
      <trkpt lat="35.501321000" lon="-106.840750000">
        <ele>1785.000</ele>
        <time>2017-03-09T21:08:55Z</time>
        <name>WPT.740</name>
      </trkpt>
      <trkpt lat="35.501285000" lon="-106.840762000">
        <ele>1784.000</ele>
        <time>2017-03-09T21:08:59Z</time>
        <name>WPT.741</name>
      </trkpt>
      <trkpt lat="35.501243000" lon="-106.840769000">
        <ele>1783.000</ele>
        <time>2017-03-09T21:09:14Z</time>
        <name>WPT.742</name>
      </trkpt>
      <trkpt lat="35.501206000" lon="-106.840781000">
        <ele>1782.000</ele>
        <time>2017-03-09T21:09:18Z</time>
        <name>WPT.743</name>
      </trkpt>
      <trkpt lat="35.501170000" lon="-106.840795000">
        <ele>1782.000</ele>
        <time>2017-03-09T21:09:23Z</time>
        <name>WPT.744</name>
      </trkpt>
      <trkpt lat="35.501138000" lon="-106.840815000">
        <ele>1781.000</ele>
        <time>2017-03-09T21:09:27Z</time>
        <name>WPT.745</name>
      </trkpt>
      <trkpt lat="35.501103000" lon="-106.840841000">
        <ele>1781.000</ele>
        <time>2017-03-09T21:09:32Z</time>
        <name>WPT.746</name>
      </trkpt>
      <trkpt lat="35.501066000" lon="-106.840854000">
        <ele>1780.000</ele>
        <time>2017-03-09T21:09:37Z</time>
        <name>WPT.747</name>
      </trkpt>
      <trkpt lat="35.501025000" lon="-106.840867000">
        <ele>1781.000</ele>
        <time>2017-03-09T21:09:51Z</time>
        <name>WPT.748</name>
      </trkpt>
      <trkpt lat="35.500988000" lon="-106.840871000">
        <ele>1782.000</ele>
        <time>2017-03-09T21:09:55Z</time>
        <name>WPT.749</name>
      </trkpt>
      <trkpt lat="35.500943000" lon="-106.840876000">
        <ele>1780.000</ele>
        <time>2017-03-09T21:10:00Z</time>
        <name>WPT.750</name>
      </trkpt>
      <trkpt lat="35.500901000" lon="-106.840864000">
        <ele>1779.000</ele>
        <time>2017-03-09T21:10:05Z</time>
        <name>WPT.751</name>
      </trkpt>
      <trkpt lat="35.500861000" lon="-106.840869000">
        <ele>1778.000</ele>
        <time>2017-03-09T21:10:10Z</time>
        <name>WPT.752</name>
      </trkpt>
      <trkpt lat="35.500822000" lon="-106.840869000">
        <ele>1776.000</ele>
        <time>2017-03-09T21:10:16Z</time>
        <name>WPT.753</name>
      </trkpt>
      <trkpt lat="35.500784000" lon="-106.840873000">
        <ele>1776.000</ele>
        <time>2017-03-09T21:10:20Z</time>
        <name>WPT.754</name>
      </trkpt>
      <trkpt lat="35.500740000" lon="-106.840889000">
        <ele>1775.000</ele>
        <time>2017-03-09T21:10:25Z</time>
        <name>WPT.755</name>
      </trkpt>
      <trkpt lat="35.500698000" lon="-106.840903000">
        <ele>1774.000</ele>
        <time>2017-03-09T21:10:46Z</time>
        <name>WPT.756</name>
      </trkpt>
      <trkpt lat="35.500657000" lon="-106.840921000">
        <ele>1774.000</ele>
        <time>2017-03-09T21:10:59Z</time>
        <name>WPT.757</name>
      </trkpt>
      <trkpt lat="35.500619000" lon="-106.840946000">
        <ele>1773.000</ele>
        <time>2017-03-09T21:11:03Z</time>
        <name>WPT.758</name>
      </trkpt>
      <trkpt lat="35.500586000" lon="-106.840973000">
        <ele>1772.000</ele>
        <time>2017-03-09T21:11:07Z</time>
        <name>WPT.759</name>
      </trkpt>
      <trkpt lat="35.500551000" lon="-106.840994000">
        <ele>1772.000</ele>
        <time>2017-03-09T21:11:10Z</time>
        <name>WPT.760</name>
      </trkpt>
      <trkpt lat="35.500514000" lon="-106.841014000">
        <ele>1772.000</ele>
        <time>2017-03-09T21:11:14Z</time>
        <name>WPT.761</name>
      </trkpt>
      <trkpt lat="35.500474000" lon="-106.841025000">
        <ele>1772.000</ele>
        <time>2017-03-09T21:11:35Z</time>
        <name>WPT.762</name>
      </trkpt>
      <trkpt lat="35.500430000" lon="-106.841026000">
        <ele>1773.000</ele>
        <time>2017-03-09T21:11:40Z</time>
        <name>WPT.763</name>
      </trkpt>
      <trkpt lat="35.500386000" lon="-106.841020000">
        <ele>1774.000</ele>
        <time>2017-03-09T21:11:44Z</time>
        <name>WPT.764</name>
      </trkpt>
      <trkpt lat="35.500341000" lon="-106.841001000">
        <ele>1773.000</ele>
        <time>2017-03-09T21:11:48Z</time>
        <name>WPT.765</name>
      </trkpt>
      <trkpt lat="35.500308000" lon="-106.840985000">
        <ele>1774.000</ele>
        <time>2017-03-09T21:11:58Z</time>
        <name>WPT.766</name>
      </trkpt>
      <trkpt lat="35.500274000" lon="-106.840954000">
        <ele>1773.000</ele>
        <time>2017-03-09T21:12:04Z</time>
        <name>WPT.767</name>
      </trkpt>
      <trkpt lat="35.500235000" lon="-106.840942000">
        <ele>1773.000</ele>
        <time>2017-03-09T21:12:08Z</time>
        <name>WPT.768</name>
      </trkpt>
      <trkpt lat="35.500198000" lon="-106.840950000">
        <ele>1774.000</ele>
        <time>2017-03-09T21:12:13Z</time>
        <name>WPT.769</name>
      </trkpt>
      <trkpt lat="35.500158000" lon="-106.840959000">
        <ele>1773.000</ele>
        <time>2017-03-09T21:12:24Z</time>
        <name>WPT.770</name>
      </trkpt>
      <trkpt lat="35.500116000" lon="-106.840969000">
        <ele>1773.000</ele>
        <time>2017-03-09T21:12:28Z</time>
        <name>WPT.771</name>
      </trkpt>
      <trkpt lat="35.500078000" lon="-106.840973000">
        <ele>1773.000</ele>
        <time>2017-03-09T21:12:32Z</time>
        <name>WPT.772</name>
      </trkpt>
      <trkpt lat="35.500040000" lon="-106.840984000">
        <ele>1773.000</ele>
        <time>2017-03-09T21:12:36Z</time>
        <name>WPT.773</name>
      </trkpt>
      <trkpt lat="35.499998000" lon="-106.841000000">
        <ele>1772.000</ele>
        <time>2017-03-09T21:12:40Z</time>
        <name>WPT.774</name>
      </trkpt>
      <trkpt lat="35.499961000" lon="-106.841004000">
        <ele>1771.000</ele>
        <time>2017-03-09T21:12:44Z</time>
        <name>WPT.775</name>
      </trkpt>
      <trkpt lat="35.499922000" lon="-106.841018000">
        <ele>1770.000</ele>
        <time>2017-03-09T21:12:48Z</time>
        <name>WPT.776</name>
      </trkpt>
      <trkpt lat="35.499888000" lon="-106.841037000">
        <ele>1770.000</ele>
        <time>2017-03-09T21:12:52Z</time>
        <name>WPT.777</name>
      </trkpt>
      <trkpt lat="35.499846000" lon="-106.841045000">
        <ele>1770.000</ele>
        <time>2017-03-09T21:12:56Z</time>
        <name>WPT.778</name>
      </trkpt>
      <trkpt lat="35.499803000" lon="-106.841063000">
        <ele>1769.000</ele>
        <time>2017-03-09T21:13:00Z</time>
        <name>WPT.779</name>
      </trkpt>
      <trkpt lat="35.499761000" lon="-106.841063000">
        <ele>1769.000</ele>
        <time>2017-03-09T21:13:04Z</time>
        <name>WPT.780</name>
      </trkpt>
      <trkpt lat="35.499719000" lon="-106.841076000">
        <ele>1769.000</ele>
        <time>2017-03-09T21:13:09Z</time>
        <name>WPT.781</name>
      </trkpt>
      <trkpt lat="35.499678000" lon="-106.841073000">
        <ele>1768.000</ele>
        <time>2017-03-09T21:13:13Z</time>
        <name>WPT.782</name>
      </trkpt>
      <trkpt lat="35.499638000" lon="-106.841069000">
        <ele>1767.000</ele>
        <time>2017-03-09T21:13:18Z</time>
        <name>WPT.783</name>
      </trkpt>
      <trkpt lat="35.499604000" lon="-106.841051000">
        <ele>1766.000</ele>
        <time>2017-03-09T21:13:22Z</time>
        <name>WPT.784</name>
      </trkpt>
      <trkpt lat="35.499559000" lon="-106.841033000">
        <ele>1767.000</ele>
        <time>2017-03-09T21:13:27Z</time>
        <name>WPT.785</name>
      </trkpt>
      <trkpt lat="35.499520000" lon="-106.841015000">
        <ele>1766.000</ele>
        <time>2017-03-09T21:13:31Z</time>
        <name>WPT.786</name>
      </trkpt>
      <trkpt lat="35.499477000" lon="-106.841021000">
        <ele>1765.000</ele>
        <time>2017-03-09T21:13:36Z</time>
        <name>WPT.787</name>
      </trkpt>
      <trkpt lat="35.499440000" lon="-106.841031000">
        <ele>1764.000</ele>
        <time>2017-03-09T21:13:40Z</time>
        <name>WPT.788</name>
      </trkpt>
      <trkpt lat="35.499392000" lon="-106.841042000">
        <ele>1763.000</ele>
        <time>2017-03-09T21:13:44Z</time>
        <name>WPT.789</name>
      </trkpt>
      <trkpt lat="35.499344000" lon="-106.841045000">
        <ele>1763.000</ele>
        <time>2017-03-09T21:13:48Z</time>
        <name>WPT.790</name>
      </trkpt>
      <trkpt lat="35.499306000" lon="-106.841051000">
        <ele>1763.000</ele>
        <time>2017-03-09T21:13:52Z</time>
        <name>WPT.791</name>
      </trkpt>
      <trkpt lat="35.499258000" lon="-106.841056000">
        <ele>1762.000</ele>
        <time>2017-03-09T21:13:56Z</time>
        <name>WPT.792</name>
      </trkpt>
      <trkpt lat="35.499217000" lon="-106.841073000">
        <ele>1762.000</ele>
        <time>2017-03-09T21:14:00Z</time>
        <name>WPT.793</name>
      </trkpt>
      <trkpt lat="35.499187000" lon="-106.841102000">
        <ele>1763.000</ele>
        <time>2017-03-09T21:15:28Z</time>
        <name>WPT.794</name>
      </trkpt>
      <trkpt lat="35.499152000" lon="-106.841126000">
        <ele>1763.000</ele>
        <time>2017-03-09T21:15:32Z</time>
        <name>WPT.795</name>
      </trkpt>
      <trkpt lat="35.499119000" lon="-106.841150000">
        <ele>1765.000</ele>
        <time>2017-03-09T21:15:36Z</time>
        <name>WPT.796</name>
      </trkpt>
      <trkpt lat="35.499090000" lon="-106.841185000">
        <ele>1765.000</ele>
        <time>2017-03-09T21:15:40Z</time>
        <name>WPT.797</name>
      </trkpt>
      <trkpt lat="35.499061000" lon="-106.841221000">
        <ele>1763.000</ele>
        <time>2017-03-09T21:15:44Z</time>
        <name>WPT.798</name>
      </trkpt>
      <trkpt lat="35.499032000" lon="-106.841262000">
        <ele>1763.000</ele>
        <time>2017-03-09T21:15:48Z</time>
        <name>WPT.799</name>
      </trkpt>
      <trkpt lat="35.499002000" lon="-106.841302000">
        <ele>1761.000</ele>
        <time>2017-03-09T21:15:52Z</time>
        <name>WPT.800</name>
      </trkpt>
      <trkpt lat="35.498971000" lon="-106.841340000">
        <ele>1761.000</ele>
        <time>2017-03-09T21:15:55Z</time>
        <name>WPT.801</name>
      </trkpt>
      <trkpt lat="35.498938000" lon="-106.841372000">
        <ele>1759.000</ele>
        <time>2017-03-09T21:15:59Z</time>
        <name>WPT.802</name>
      </trkpt>
      <trkpt lat="35.498910000" lon="-106.841410000">
        <ele>1760.000</ele>
        <time>2017-03-09T21:16:02Z</time>
        <name>WPT.803</name>
      </trkpt>
      <trkpt lat="35.498880000" lon="-106.841438000">
        <ele>1759.000</ele>
        <time>2017-03-09T21:16:06Z</time>
        <name>WPT.804</name>
      </trkpt>
      <trkpt lat="35.498841000" lon="-106.841448000">
        <ele>1759.000</ele>
        <time>2017-03-09T21:16:10Z</time>
        <name>WPT.805</name>
      </trkpt>
      <trkpt lat="35.498802000" lon="-106.841460000">
        <ele>1759.000</ele>
        <time>2017-03-09T21:16:13Z</time>
        <name>WPT.806</name>
      </trkpt>
      <trkpt lat="35.498761000" lon="-106.841455000">
        <ele>1759.000</ele>
        <time>2017-03-09T21:16:17Z</time>
        <name>WPT.807</name>
      </trkpt>
      <trkpt lat="35.498725000" lon="-106.841437000">
        <ele>1760.000</ele>
        <time>2017-03-09T21:16:22Z</time>
        <name>WPT.808</name>
      </trkpt>
      <trkpt lat="35.498686000" lon="-106.841426000">
        <ele>1760.000</ele>
        <time>2017-03-09T21:17:08Z</time>
        <name>WPT.809</name>
      </trkpt>
      <trkpt lat="35.498655000" lon="-106.841452000">
        <ele>1760.000</ele>
        <time>2017-03-09T21:17:12Z</time>
        <name>WPT.810</name>
      </trkpt>
      <trkpt lat="35.498612000" lon="-106.841454000">
        <ele>1761.000</ele>
        <time>2017-03-09T21:17:24Z</time>
        <name>WPT.811</name>
      </trkpt>
      <trkpt lat="35.498569000" lon="-106.841468000">
        <ele>1762.000</ele>
        <time>2017-03-09T21:17:29Z</time>
        <name>WPT.812</name>
      </trkpt>
      <trkpt lat="35.498538000" lon="-106.841495000">
        <ele>1761.000</ele>
        <time>2017-03-09T21:17:33Z</time>
        <name>WPT.813</name>
      </trkpt>
      <trkpt lat="35.498502000" lon="-106.841515000">
        <ele>1761.000</ele>
        <time>2017-03-09T21:17:37Z</time>
        <name>WPT.814</name>
      </trkpt>
      <trkpt lat="35.498467000" lon="-106.841499000">
        <ele>1762.000</ele>
        <time>2017-03-09T21:18:15Z</time>
        <name>WPT.815</name>
      </trkpt>
      <trkpt lat="35.498470000" lon="-106.841496000">
        <ele>1762.000</ele>
        <time>2017-03-09T21:18:43Z</time>
        <name>WPT.816</name>
      </trkpt>
    </trkseg>
  </trk>
</gpx>
